Flight Track Log - Related Links

Times and Time Zones

All times are in EDT time to prevent confusion due to time zone crossing. See the AFL150 flight status page for this flight to view local times or setup timezone preferences in your user account.

Time Position Orientation Groundspeed Altitude Reporting Facility
EDT Latitude Longitude Course Direction KTS MPH feet Rate Location/Type
Tue 06:24:13 AM 55.9800 37.4750 75° East 183 211 1,900  Level FlightAware ADS-B
Tue 06:24:36 AM 55.9880 37.5290 75° East 189 217 2,900 1,750 Climbing FlightAware ADS-B
Tue 06:25:01 AM 55.9940 37.5690 75° East 217 250 3,300 1,345 Climbing FlightAware ADS-B
Tue 06:25:34 AM 56.0040 37.6380 75° East 260 299 4,200 1,889 Climbing FlightAware ADS-B
Tue 06:25:55 AM 56.0100 37.6800 76° East 266 306 5,000 2,229 Climbing FlightAware ADS-B
Tue 06:26:09 AM 56.0160 37.7120 71° East 272 313 5,500 2,211 Climbing FlightAware ADS-B
Tue 06:26:14 AM 56.0190 37.7210 59° Northeast 272 313 5,700 2,400 Climbing FlightAware ADS-B
Tue 06:26:19 AM 56.0230 37.7310 54° Northeast 271 312 5,900 2,800 Climbing FlightAware ADS-B
Tue 06:26:29 AM 56.0330 37.7440 36° Northeast 271 312 6,400 2,400 Climbing FlightAware ADS-B
Tue 06:26:44 AM 56.0510 37.7530 16° North 276 318 6,900 2,229 Climbing FlightAware ADS-B
Tue 06:27:04 AM 56.0750 37.7410 344° North 282 325 7,700 2,400 Climbing FlightAware ADS-B
Tue 06:27:09 AM 56.0800 37.7330 318° Northwest 285 328 7,900 2,400 Climbing FlightAware ADS-B
Tue 06:27:14 AM 56.0850 37.7240 315° West 287 330 8,100 2,250 Climbing FlightAware ADS-B
Tue 06:27:25 AM 56.0900 37.7030 293° West 288 331 8,500 2,400 Climbing FlightAware ADS-B
Tue 06:27:44 AM 56.0980 37.6560 287° West 290 334 9,300 2,222 Climbing FlightAware ADS-B
Tue 06:28:19 AM 56.1120 37.5750 287° West 304 350 10,500 1,437 Climbing FlightAware ADS-B
Tue 06:28:55 AM 56.1280 37.4850 288° West 340 391 11,000 1,029 Climbing FlightAware ADS-B
Tue 06:29:29 AM 56.1440 37.3870 286° West 370 426 11,700 2,676 Climbing FlightAware ADS-B
Tue 06:30:09 AM 56.1630 37.2740 287° West 342 394 14,300 3,514 Climbing FlightAware ADS-B
Tue 06:30:39 AM 56.1760 37.1930 286° West 334 384 15,800 2,308 Climbing FlightAware ADS-B
Tue 06:31:14 AM 56.1910 37.0990 286° West 343 395 16,800 1,714 Climbing FlightAware ADS-B
Tue 06:31:49 AM 56.2070 37.0020 287° West 354 407 17,800 1,575 Climbing FlightAware ADS-B
Tue 06:32:34 AM 56.2280 36.8700 286° West 375 432 18,900 1,650 Climbing FlightAware ADS-B
Tue 06:33:09 AM 56.2450 36.7650 286° West 381 438 20,000 1,886 Climbing FlightAware ADS-B
Tue 06:33:44 AM 56.2610 36.6580 285° West 382 440 21,100 1,800 Climbing FlightAware ADS-B
Tue 06:34:19 AM 56.2780 36.5500 286° West 388 447 22,100 1,714 Climbing FlightAware ADS-B
Tue 06:34:54 AM 56.2950 36.4400 286° West 393 452 23,100 1,543 Climbing FlightAware ADS-B
Tue 06:35:29 AM 56.3120 36.3300 286° West 399 459 23,900 1,440 Climbing FlightAware ADS-B
Tue 06:36:09 AM 56.3320 36.2000 286° West 404 465 24,900 1,477 Climbing FlightAware ADS-B
Tue 06:36:34 AM 56.3500 36.1250 293° West 403 464 25,500 1,467 Climbing FlightAware ADS-B
Tue 06:36:54 AM 56.3750 36.0740 312° West 407 468 26,000 1,200 Climbing FlightAware ADS-B
Tue 06:37:14 AM 56.4070 36.0400 330° Northwest 413 475 26,300 982 Climbing FlightAware ADS-B
Tue 06:37:49 AM 56.4700 35.9910 337° Northwest 421 484 26,900 1,114 Climbing FlightAware ADS-B
Tue 06:38:24 AM 56.5310 35.9410 336° Northwest 425 489 27,600 1,114 Climbing FlightAware ADS-B
Tue 06:38:59 AM 56.5940 35.8920 337° Northwest 428 493 28,200 1,029 Climbing FlightAware ADS-B
Tue 06:39:34 AM 56.6550 35.8430 336° Northwest 433 498 28,800 1,100 Climbing FlightAware ADS-B
Tue 06:39:59 AM 56.7050 35.8030 336° Northwest 437 503 29,300 825 Climbing FlightAware ADS-B
Tue 06:40:54 AM 56.8050 35.7230 336° Northwest 448 516 29,900 593 Climbing FlightAware ADS-B
Tue 06:41:30 AM 56.8720 35.6690 336° Northwest 457 526 30,200 532 Climbing FlightAware ADS-B
Tue 06:42:13 AM 56.9570 35.6000 336° Northwest 469 540 30,600 804 Climbing FlightAware ADS-B
Tue 06:43:07 AM 57.0520 35.5230 336° Northwest 468 539 31,500 1,187 Climbing FlightAware ADS-B
Tue 06:43:44 AM 57.1410 35.4500 336° Northwest 466 536 32,400 1,254 Climbing FlightAware ADS-B
Tue 06:44:14 AM 57.1990 35.4020 336° Northwest 464 534 32,900 923 Climbing FlightAware ADS-B
Tue 06:44:49 AM 57.2680 35.3450 336° Northwest 466 536 33,400 686 Climbing FlightAware ADS-B
Tue 06:45:24 AM 57.3360 35.2890 336° Northwest 471 542 33,700 514 Climbing FlightAware ADS-B
Tue 06:45:59 AM 57.4060 35.2300 336° Northwest 477 549 34,000 257 Climbing FlightAware ADS-B
Tue 06:46:34 AM 57.4750 35.1730 336° Northwest 479 551 34,000  Level FlightAware ADS-B
Tue 06:47:09 AM 57.5480 35.1120 336° Northwest 479 551 34,000  Level FlightAware ADS-B
Tue 06:47:44 AM 57.6190 35.0520 336° Northwest 478 550 34,000  Level FlightAware ADS-B
Tue 06:48:19 AM 57.6890 34.9900 335° Northwest 476 548 34,000  Level FlightAware ADS-B
Tue 06:48:54 AM 57.7520 34.9130 327° Northwest 473 544 34,000  Level FlightAware ADS-B
Tue 06:49:34 AM 57.8230 34.8160 324° Northwest 473 544 34,000  Level FlightAware ADS-B
Tue 06:50:04 AM 57.8770 34.7460 325° Northwest 472 543 34,000  Level FlightAware ADS-B
Tue 06:50:39 AM 57.9380 34.6620 324° Northwest 472 543 34,000  Level FlightAware ADS-B
Tue 06:51:19 AM 58.0080 34.5640 323° Northwest 471 542 34,000  Level FlightAware ADS-B
Tue 06:51:49 AM 58.0600 34.4910 323° Northwest 468 539 34,000  Level FlightAware ADS-B
Tue 06:52:24 AM 58.1200 34.4080 324° Northwest 462 532 34,000  Level FlightAware ADS-B
Tue 06:53:09 AM 58.1940 34.3000 322° Northwest 457 526 34,000  Level FlightAware ADS-B
Tue 06:53:39 AM 58.2450 34.2220 321° Northwest 454 522 34,000  Level FlightAware ADS-B
Tue 06:54:19 AM 58.3100 34.1210 321° Northwest 444 511 34,000  Level FlightAware ADS-B
Tue 06:54:49 AM 58.3560 34.0510 321° Northwest 440 506 34,000  Level FlightAware ADS-B
Tue 06:55:29 AM 58.4200 33.9520 321° Northwest 437 503 34,000  Level FlightAware ADS-B
Tue 06:56:14 AM 58.4890 33.8450 321° Northwest 434 499 34,000  Level FlightAware ADS-B
Tue 06:56:49 AM 58.5340 33.7760 321° Northwest 432 497 34,000  Level FlightAware ADS-B
Tue 06:57:26 AM 58.5830 33.7000 321° Northwest 432 497 34,000  Level FlightAware ADS-B
Tue 06:58:02 AM 58.6310 33.6260 321° Northwest 432 497 34,000  Level FlightAware ADS-B
Tue 06:58:38 AM 58.6780 33.5520 321° Northwest 432 497 34,000  Level FlightAware ADS-B
Tue 06:59:14 AM 58.7260 33.4780 321° Northwest 432 497 34,000  Level FlightAware ADS-B
Tue 06:59:50 AM 58.7730 33.4030 320° Northwest 432 497 34,000  Level FlightAware ADS-B
Tue 07:00:28 AM 58.8230 33.3250 321° Northwest 432 497 34,000  Level FlightAware ADS-B
Tue 07:01:03 AM 58.8700 33.2530 322° Northwest 432 497 34,000  Level FlightAware ADS-B
Tue 07:01:39 AM 58.9170 33.1780 321° Northwest 432 497 34,000  Level FlightAware ADS-B
Tue 07:02:15 AM 58.9650 33.1030 321° Northwest 432 497 34,000  Level FlightAware ADS-B
Tue 07:02:50 AM 59.0680 32.8140 305° West 34,000  Level FlightAware ADS-B
Tue 07:02:55 AM 59.0750 32.8000 314° West 34,000  Level FlightAware ADS-B
Tue 07:03:55 AM 59.1590 32.6330 314° West 436 502 34,000  Level FlightAware ADS-B
Tue 07:04:30 AM 59.1980 32.5560 315° West 435 501 34,000  Level FlightAware ADS-B
Tue 07:05:11 AM 59.2650 32.4230 315° West 661 761 34,000  Level FlightAware ADS-B
Tue 07:05:45 AM 59.3120 32.3270 314° West 434 499 34,000  Level FlightAware ADS-B
Tue 07:06:15 AM 59.3540 32.2430 314° West 434 499 34,000  Level FlightAware ADS-B
Tue 07:06:55 AM 59.4080 32.1290 313° West 435 501 34,000  Level FlightAware ADS-B
Tue 07:07:25 AM 59.4430 32.0320 305° West 436 502 34,000  Level FlightAware ADS-B
Tue 07:08:05 AM 59.4830 31.8920 299° West 438 504 34,000  Level FlightAware ADS-B
Tue 07:08:40 AM 59.5110 31.7650 294° West 437 503 34,000  Level FlightAware ADS-B
Tue 07:09:15 AM 59.5390 31.6380 294° West 436 502 34,000  Level FlightAware ADS-B
Tue 07:09:45 AM 59.5630 31.5270 293° West 434 499 34,000  Level FlightAware ADS-B
Tue 07:10:25 AM 59.5840 31.3740 285° West 437 503 34,000  Level FlightAware ADS-B
Tue 07:11:14 AM 59.5930 31.2250 277° West 439 505 34,000  Level FlightAware ADS-B
Tue 07:11:46 AM 59.5950 31.0920 272° West 440 506 34,000  Level FlightAware ADS-B
Tue 07:12:25 AM 59.5980 30.8990 272° West 440 506 34,000  Level FlightAware ADS-B
Tue 07:12:55 AM 59.6000 30.7780 272° West 441 507 34,000  Level FlightAware ADS-B
Tue 07:13:35 AM 59.6030 30.6150 272° West 441 507 34,000  Level FlightAware ADS-B
Tue 07:14:10 AM 59.6040 30.4760 271° West 442 509 34,000  Level FlightAware ADS-B
Tue 07:14:45 AM 59.6060 30.3340 272° West 442 509 34,000  Level FlightAware ADS-B
Tue 07:15:20 AM 59.6070 30.1930 271° West 443 510 34,000  Level FlightAware ADS-B
Tue 07:16:00 AM 59.6100 30.0350 272° West 440 506 34,000  Level FlightAware ADS-B
Tue 07:16:35 AM 59.6240 29.8960 281° West 436 502 34,000  Level FlightAware ADS-B
Tue 07:17:15 AM 59.6410 29.7410 282° West 434 499 34,000  Level FlightAware ADS-B
Tue 07:17:45 AM 59.6530 29.6280 282° West 433 498 34,000  Level FlightAware ADS-B
Tue 07:18:20 AM 59.6660 29.4970 281° West 432 497 34,000  Level FlightAware ADS-B
Tue 07:18:56 AM 59.6820 29.3520 282° West 430 495 34,000  Level FlightAware ADS-B
Tue 07:19:31 AM 59.6950 29.2230 281° West 431 496 34,000  Level FlightAware ADS-B
Tue 07:19:57 AM 59.7060 29.1190 282° West 431 496 34,000  Level FlightAware ADS-B
Tue 07:21:04 AM 59.7320 28.8570 281° West 433 498 34,000  Level FlightAware ADS-B
Tue 07:21:39 AM 59.7460 28.7210 282° West 432 497 34,000  Level FlightAware ADS-B
Tue 07:22:12 AM 59.7580 28.5960 281° West 431 496 34,000  Level FlightAware ADS-B
Tue 07:22:51 AM 59.7730 28.4430 281° West 432 497 34,000  Level FlightAware ADS-B
Tue 07:22:55 AM 59.7750 28.4240 282° West 432 497 34,000  Level FlightAware ADS-B
Tue 07:24:04 AM 59.7940 28.2210 281° West 434 499 34,000  Level FlightAware ADS-B
Tue 07:24:38 AM 59.8110 28.0340 280° West 433 498 34,000  Level FlightAware ADS-B
Tue 07:25:20 AM 59.8260 27.8710 280° West 431 496 34,000  Level FlightAware ADS-B
Tue 07:26:02 AM 59.8410 27.7160 281° West 431 496 34,000  Level FlightAware ADS-B
Tue 07:26:40 AM 59.8540 27.5640 280° West 431 496 34,000  Level FlightAware ADS-B
Tue 07:27:21 AM 59.8700 27.3900 280° West 432 497 34,000  Level FlightAware ADS-B
Tue 07:27:55 AM 59.8810 27.2550 279° West 432 497 34,000  Level FlightAware ADS-B
Tue 07:28:33 AM 59.8940 27.1130 280° West 431 496 34,000  Level FlightAware ADS-B
Tue 07:29:05 AM 59.9050 26.9840 280° West 431 496 34,000  Level FlightAware ADS-B
Tue 07:29:41 AM 59.9160 26.8500 279° West 431 496 34,000  Level FlightAware ADS-B
Tue 07:30:17 AM 59.9280 26.7030 279° West 432 497 34,000  Level FlightAware ADS-B
Tue 07:30:53 AM 59.9400 26.5610 280° West 433 498 34,000  Level FlightAware ADS-B
Tue 07:31:25 AM 59.9520 26.4350 281° West 434 499 34,000  Level FlightAware ADS-B
Tue 07:32:01 AM 59.9730 26.3010 287° West 434 499 34,000  Level FlightAware ADS-B
Tue 07:32:35 AM 60.0020 26.1730 294° West 435 501 34,000  Level FlightAware ADS-B
Tue 07:33:13 AM 60.0370 26.0430 298° West 436 502 34,000  Level FlightAware ADS-B
Tue 07:33:45 AM 60.0680 25.9260 298° West 436 502 34,000  Level FlightAware ADS-B
Tue 07:34:21 AM 60.1020 25.7980 298° West 437 503 34,000  Level FlightAware ADS-B
Tue 07:34:55 AM 60.1320 25.6850 298° West 438 504 34,000  Level FlightAware ADS-B
Tue 07:35:33 AM 60.1700 25.5400 298° West 439 505 34,000  Level FlightAware ADS-B
Tue 07:36:03 AM 60.1990 25.4300 298° West 440 506 34,000  Level FlightAware ADS-B
Tue 07:36:41 AM 60.2330 25.2970 297° West 440 506 34,000  Level FlightAware ADS-B
Tue 07:37:15 AM 60.2660 25.1710 298° West 441 507 34,000  Level FlightAware ADS-B
Tue 07:37:51 AM 60.3000 25.0370 297° West 442 509 34,000  Level FlightAware ADS-B
Tue 07:38:25 AM 60.3300 24.9180 297° West 442 509 34,000  Level FlightAware ADS-B
Tue 07:39:01 AM 60.3650 24.7820 298° West 442 509 34,000  Level FlightAware ADS-B
Tue 07:39:37 AM 60.3990 24.6470 297° West 441 507 34,000  Level FlightAware ADS-B
Tue 07:39:53 AM 60.4120 24.5940 296° West 441 507 34,000  Level FlightAware ADS-B
Tue 07:40:50 AM 60.4560 24.4170 297° West 440 506 34,000  Level FlightAware ADS-B
Tue 07:41:25 AM 60.4970 24.2530 297° West 440 506 34,000  Level FlightAware ADS-B
Tue 07:42:01 AM 60.5290 24.1230 297° West 439 505 34,000  Level FlightAware ADS-B
Tue 07:42:17 AM 60.5480 24.0630 303° West 443 510 34,000  Level FlightAware ADS-B
Tue 07:43:31 AM 60.6570 23.8470 316° Northwest 447 514 34,000  Level FlightAware ADS-B
Tue 07:44:06 AM 60.7070 23.7480 316° Northwest 446 513 34,000  Level FlightAware ADS-B
Tue 07:44:36 AM 60.7530 23.6560 316° Northwest 446 513 34,000  Level FlightAware ADS-B
Tue 07:45:09 AM 60.7990 23.5640 316° Northwest 446 513 34,000  Level FlightAware ADS-B
Tue 07:45:52 AM 60.8650 23.4330 316° Northwest 446 513 34,000  Level FlightAware ADS-B
Tue 07:46:29 AM 60.9190 23.3240 316° Northwest 447 514 34,000  Level FlightAware ADS-B
Tue 07:47:03 AM 60.9700 23.2200 315° West 449 517 34,000  Level FlightAware ADS-B
Tue 07:47:36 AM 61.0170 23.1220 315° West 449 517 34,000  Level FlightAware ADS-B
Tue 07:48:21 AM 61.0840 22.9850 315° West 449 517 34,000  Level FlightAware ADS-B
Tue 07:48:54 AM 61.1320 22.8870 315° West 449 517 34,000  Level FlightAware ADS-B
Tue 07:49:29 AM 61.1830 22.7810 315° West 449 517 34,000  Level FlightAware ADS-B
Tue 07:50:06 AM 61.2350 22.6730 315° West 449 517 34,000  Level FlightAware ADS-B
Tue 07:50:38 AM 61.2840 22.5690 314° West 450 518 34,000  Level FlightAware ADS-B
Tue 07:51:14 AM 61.3330 22.4660 315° West 451 519 34,000  Level FlightAware ADS-B
Tue 07:51:47 AM 61.3840 22.3570 314° West 451 519 34,000  Level FlightAware ADS-B
Tue 07:52:22 AM 61.4350 22.2500 315° West 451 519 34,000  Level FlightAware ADS-B
Tue 07:52:59 AM 61.4890 22.1340 314° West 451 519 34,000  Level FlightAware ADS-B
Tue 07:53:33 AM 61.5380 22.0270 314° West 451 519 34,000  Level FlightAware ADS-B
Tue 07:54:11 AM 61.5930 21.9090 314° West 449 517 34,000  Level FlightAware ADS-B
Tue 07:54:44 AM 61.6400 21.8080 314° West 449 517 34,000  Level FlightAware ADS-B
Tue 07:55:27 AM 61.7030 21.6680 314° West 447 514 34,000  Level FlightAware ADS-B
Tue 07:56:04 AM 61.7550 21.5550 314° West 447 514 34,000  Level FlightAware ADS-B
Tue 07:56:29 AM 61.7900 21.4770 314° West 447 514 34,000  Level FlightAware ADS-B
Tue 07:57:20 AM 61.8630 21.3150 314° West 446 513 34,000  Level FlightAware ADS-B
Tue 07:57:59 AM 61.9130 21.2050 314° West 446 513 34,000  Level FlightAware ADS-B
Tue 07:58:34 AM 61.9620 21.0940 313° West 447 514 34,000  Level FlightAware ADS-B
Tue 07:59:06 AM 62.0110 20.9820 313° West 448 516 34,000  Level FlightAware ADS-B
Tue 07:59:41 AM 62.0620 20.8670 313° West 448 516 34,000  Level FlightAware ADS-B
Tue 08:00:29 AM 62.1250 20.7220 313° West 447 514 34,000  Level FlightAware ADS-B
Tue 08:01:11 AM 62.1880 20.5790 313° West 446 513 34,000  Level FlightAware ADS-B
Tue 08:01:46 AM 62.2370 20.4660 313° West 447 514 34,000  Level FlightAware ADS-B
Tue 08:02:21 AM 62.2860 20.3520 313° West 447 514 34,000  Level FlightAware ADS-B
Tue 08:02:56 AM 62.3330 20.2420 313° West 448 516 34,000  Level FlightAware ADS-B
Tue 08:03:11 AM 62.3550 20.1890 312° West 448 516 34,000  Level FlightAware ADS-B
Tue 08:04:31 AM 62.4670 19.9250 313° West 443 510 34,000  Level FlightAware ADS-B
Tue 08:05:06 AM 62.5170 19.8080 313° West 442 509 34,000  Level FlightAware ADS-B
Tue 08:05:36 AM 62.5560 19.7140 312° West 442 509 34,000  Level FlightAware ADS-B
Tue 08:06:16 AM 62.6130 19.5770 312° West 443 510 34,000  Level FlightAware ADS-B
Tue 08:06:58 AM 62.6640 19.4500 311° West 443 510 34,000  Level FlightAware ADS-B
Tue 08:07:37 AM 62.7220 19.3120 313° West 445 512 34,000  Level FlightAware ADS-B
Tue 08:08:11 AM 62.7710 19.1940 312° West 444 511 34,000  Level FlightAware ADS-B
Tue 08:08:46 AM 62.8200 19.0710 311° West 444 511 34,000  Level FlightAware ADS-B
Tue 08:09:21 AM 62.8680 18.9540 312° West 445 512 34,000  Level FlightAware ADS-B
Tue 08:10:06 AM 62.9310 18.7960 311° West 452 520 34,000  Level FlightAware ADS-B
Tue 08:10:37 AM 62.9730 18.6920 312° West 449 517 34,000  Level FlightAware ADS-B
Tue 08:11:23 AM 63.0310 18.5450 311° West 451 519 34,000  Level FlightAware ADS-B
Tue 08:11:59 AM 63.0770 18.4290 311° West 450 518 34,000 400 Level FlightAware ADS-B
Tue 08:12:38 AM 63.1360 18.2790 311° West 449 517 34,500 973 Climbing FlightAware ADS-B
Tue 08:13:13 AM 63.1860 18.1510 311° West 446 513 35,200 930 Climbing FlightAware ADS-B
Tue 08:13:49 AM 63.2280 18.0420 311° West 448 516 35,600 636 Climbing FlightAware ADS-B
Tue 08:14:19 AM 63.2720 17.9280 311° West 451 519 35,900 329 Climbing FlightAware ADS-B
Tue 08:15:02 AM 63.3350 17.7620 310° West 459 528 36,000 80 Climbing FlightAware ADS-B
Tue 08:15:34 AM 63.3790 17.6480 311° West 454 522 36,000  Level FlightAware ADS-B
Tue 08:16:10 AM 63.4280 17.5190 310° West 451 519 36,000  Level FlightAware ADS-B
Tue 08:16:46 AM 63.4760 17.3910 310° West 452 520 36,000  Level FlightAware ADS-B
Tue 08:17:22 AM 63.5240 17.2630 310° West 451 519 36,000  Level FlightAware ADS-B
Tue 08:17:52 AM 63.5630 17.1590 310° West 449 517 36,000  Level FlightAware ADS-B
Tue 08:18:30 AM 63.6140 17.0200 310° West 449 517 36,000  Level FlightAware ADS-B
Tue 08:19:06 AM 63.6620 16.8930 310° West 450 518 36,000  Level FlightAware ADS-B
Tue 08:19:38 AM 63.7040 16.7780 310° West 451 519 36,000  Level FlightAware ADS-B
Tue 08:19:58 AM 63.7310 16.7040 310° West 451 519 36,000  Level FlightAware ADS-B
Tue 08:21:53 AM 63.8650 16.3330 309° West 452 520 36,000  Level FlightAware ADS-B
Tue 08:22:53 AM 63.9320 16.1440 309° West 452 520 36,000  Level FlightAware ADS-B
Tue 08:23:29 AM 64.0010 15.9490 309° West 454 522 36,000  Level FlightAware ADS-B
Tue 08:24:04 AM 64.0530 15.8010 309° West 455 524 36,000  Level FlightAware ADS-B
Tue 08:24:40 AM 64.1000 15.6660 309° West 455 524 36,000  Level FlightAware ADS-B
Tue 08:24:46 AM 64.1060 15.6500 311° West 455 524 36,000  Level FlightAware ADS-B
Tue 08:25:46 AM 64.1860 15.4170 308° West 457 526 36,000  Level FlightAware ADS-B
Tue 08:26:24 AM 64.2360 15.2720 308° West 456 525 36,000  Level FlightAware ADS-B
Tue 08:27:00 AM 64.2830 15.1350 308° West 454 522 36,000  Level FlightAware ADS-B
Tue 08:27:34 AM 64.3270 15.0050 308° West 456 525 36,000  Level FlightAware ADS-B
Tue 08:28:10 AM 64.3730 14.8670 308° West 458 527 36,000  Level FlightAware ADS-B
Tue 08:28:43 AM 64.4060 14.7690 308° West 458 527 36,000  Level FlightAware ADS-B
Tue 08:29:14 AM 64.4390 14.6690 307° West 459 528 36,000  Level FlightAware ADS-B
Tue 08:29:48 AM 64.4840 14.5350 308° West 462 532 36,000  Level FlightAware ADS-B
Tue 08:30:30 AM 64.5380 14.3690 307° West 463 533 36,000  Level FlightAware ADS-B
Tue 08:31:06 AM 64.6010 14.1770 307° West 464 534 36,000  Level FlightAware ADS-B
Tue 08:31:38 AM 64.6400 14.0580 307° West 464 534 36,000  Level FlightAware ADS-B
Tue 08:32:14 AM 64.6890 13.9050 307° West 464 534 36,000  Level FlightAware ADS-B
Tue 08:32:42 AM 64.7240 13.7970 307° West 463 533 36,000  Level FlightAware ADS-B
Tue 08:33:18 AM 64.7710 13.6490 307° West 464 534 36,000  Level FlightAware ADS-B
Tue 08:33:50 AM 64.8100 13.5250 306° West 464 534 36,000  Level FlightAware ADS-B
Tue 08:34:25 AM 64.8540 13.3860 307° West 462 532 36,000  Level FlightAware ADS-B
Tue 08:35:02 AM 64.9010 13.2350 306° West 461 531 36,000  Level FlightAware ADS-B
Tue 08:35:32 AM 64.9410 13.1090 307° West 460 529 36,000  Level FlightAware ADS-B
Tue 08:36:12 AM 64.9900 12.9490 306° West 460 529 36,000  Level FlightAware ADS-B
Tue 08:36:46 AM 65.0320 12.8110 306° West 461 531 36,000  Level FlightAware ADS-B
Tue 08:37:22 AM 65.0770 12.6640 306° West 463 533 36,000  Level FlightAware ADS-B
Tue 08:37:58 AM 65.1210 12.5200 306° West 462 532 36,000  Level FlightAware ADS-B
Tue 08:38:32 AM 65.1650 12.3750 306° West 464 534 36,000  Level FlightAware ADS-B
Tue 08:39:06 AM 65.2050 12.2390 305° West 467 537 36,000  Level FlightAware ADS-B
Tue 08:39:43 AM 65.2520 12.0830 306° West 464 534 36,000  Level FlightAware ADS-B
Tue 08:39:59 AM 65.2710 12.0170 305° West 461 531 36,000  Level FlightAware ADS-B
Tue 08:42:22 AM 65.4250 11.4860 305° West 460 529 36,000  Level FlightAware ADS-B
Tue 08:43:00 AM 65.4830 11.2880 305° West 464 534 36,000  Level FlightAware ADS-B
Tue 08:43:29 AM 65.5270 11.1320 304° West 465 535 36,000  Level FlightAware ADS-B
Tue 08:44:01 AM 65.5660 10.9970 305° West 465 535 36,000  Level FlightAware ADS-B
Tue 08:44:03 AM 65.5680 10.9880 298° West 465 535 36,000  Level FlightAware ADS-B
Tue 08:45:11 AM 65.6500 10.6970 304° West 468 539 36,000  Level FlightAware ADS-B
Tue 08:45:47 AM 65.6940 10.5400 304° West 469 540 36,000  Level FlightAware ADS-B
Tue 08:46:23 AM 65.7360 10.3850 303° West 467 537 36,000  Level FlightAware ADS-B
Tue 08:46:59 AM 65.7780 10.2310 304° West 466 536 36,000  Level FlightAware ADS-B
Tue 08:47:35 AM 65.8220 10.0700 304° West 467 537 36,000  Level FlightAware ADS-B
Tue 08:48:15 AM 65.8700 9.8900 303° West 467 537 36,000  Level FlightAware ADS-B
Tue 08:48:51 AM 65.9110 9.7380 304° West 469 540 36,000  Level FlightAware ADS-B
Tue 08:49:23 AM 65.9490 9.5970 304° West 469 540 36,000  Level FlightAware ADS-B
Tue 08:50:09 AM 65.9970 9.4130 303° West 469 540 36,000  Level FlightAware ADS-B
Tue 08:50:43 AM 66.0310 9.2840 303° West 469 540 36,000  Level FlightAware ADS-B
Tue 08:51:19 AM 66.0670 9.1470 303° West 469 540 36,000  Level FlightAware ADS-B
Tue 08:52:07 AM 66.1160 8.9640 304° West 469 540 36,000  Level FlightAware ADS-B
Tue 08:52:44 AM 66.1530 8.8220 303° West 469 540 36,000  Level FlightAware ADS-B
Tue 08:53:20 AM 66.1890 8.6840 303° West 469 540 36,000  Level FlightAware ADS-B
Tue 08:53:56 AM 66.2250 8.5460 303° West 469 540 36,000  Level FlightAware ADS-B
Tue 08:54:32 AM 66.2610 8.4080 303° West 469 540 36,000  Level FlightAware ADS-B
Tue 08:55:10 AM 66.2990 8.2620 303° West 469 540 36,000  Level FlightAware ADS-B
Tue 08:55:47 AM 66.3370 8.1190 304° West 469 540 36,000  Level FlightAware ADS-B
Tue 08:56:23 AM 66.3730 7.9800 303° West 469 540 36,000  Level FlightAware ADS-B
Tue 08:57:00 AM 66.4100 7.8370 303° West 469 540 36,000  Level FlightAware ADS-B
Tue 08:57:36 AM 66.4460 7.6980 303° West 469 540 36,000  Level FlightAware ADS-B
Tue 08:58:12 AM 66.4820 7.5590 303° West 469 540 36,000  Level FlightAware ADS-B
Tue 08:58:48 AM 66.5180 7.4190 303° West 469 540 36,000  Level FlightAware ADS-B
Tue 08:59:24 AM 66.5540 7.2790 303° West 469 540 36,000  Level FlightAware ADS-B
Tue 09:01:00 AM 66.5827 6.8288 279° West  Level Estimated
Tue 09:02:00 AM 66.5999 6.5469 279° West  Level Estimated
Tue 09:03:00 AM 66.6167 6.2646 279° West  Level Estimated
Tue 09:04:00 AM 66.6329 5.9819 278° West  Level Estimated
Tue 09:05:00 AM 66.6487 5.6989 278° West  Level Estimated
Tue 09:06:00 AM 66.6639 5.4155 278° West  Level Estimated
Tue 09:07:00 AM 66.6786 5.1317 278° West  Level Estimated
Tue 09:08:00 AM 66.6928 4.8477 277° West  Level Estimated
Tue 09:09:00 AM 66.7065 4.5633 277° West  Level Estimated
Tue 09:10:00 AM 66.7197 4.2786 277° West  Level Estimated
Tue 09:11:00 AM 66.7324 3.9936 277° West  Level Estimated
Tue 09:12:00 AM 66.7445 3.7083 276° West  Level Estimated
Tue 09:13:00 AM 66.7562 3.4227 276° West  Level Estimated
Tue 09:14:00 AM 66.7673 3.1369 276° West  Level Estimated
Tue 09:15:00 AM 66.7779 2.8508 275° West  Level Estimated
Tue 09:16:00 AM 66.7880 2.5645 275° West  Level Estimated
Tue 09:17:00 AM 66.7975 2.2779 275° West  Level Estimated
Tue 09:18:00 AM 66.8066 1.9912 275° West  Level Estimated
Tue 09:19:00 AM 66.8151 1.7042 274° West  Level Estimated
Tue 09:20:00 AM 66.8231 1.4170 274° West  Level Estimated
Tue 09:21:00 AM 66.8306 1.1297 274° West  Level Estimated
Tue 09:22:00 AM 66.8376 0.8421 274° West  Level Estimated
Tue 09:23:00 AM 66.8440 0.5545 273° West  Level Estimated
Tue 09:24:00 AM 66.8499 0.2667 273° West  Level Estimated
Tue 09:25:00 AM 66.8553 -0.0213 273° West  Level Estimated
Tue 09:26:00 AM 66.8602 -0.3094 273° West  Level Estimated
Tue 09:27:00 AM 66.8645 -0.5975 272° West  Level Estimated
Tue 09:28:00 AM 66.8684 -0.8858 272° West  Level Estimated
Tue 09:29:00 AM 66.8717 -1.1742 272° West  Level Estimated
Tue 09:30:00 AM 66.8744 -1.4626 272° West  Level Estimated
Tue 09:31:00 AM 66.8767 -1.7511 271° West  Level Estimated
Tue 09:32:00 AM 66.8784 -2.0396 271° West  Level Estimated
Tue 09:33:00 AM 66.8796 -2.3282 271° West  Level Estimated
Tue 09:34:00 AM 66.8803 -2.6168 270° West  Level Estimated
Tue 09:35:00 AM 66.8804 -2.9054 270° West  Level Estimated
Tue 09:36:00 AM 66.8801 -3.1940 270° West  Level Estimated
Tue 09:37:00 AM 66.8792 -3.4826 270° West  Level Estimated
Tue 09:38:00 AM 66.8778 -3.7712 269° West  Level Estimated
Tue 09:39:00 AM 66.8758 -4.0597 269° West  Level Estimated
Tue 09:40:00 AM 66.8733 -4.3482 269° West  Level Estimated
Tue 09:41:00 AM 66.8703 -4.6366 269° West  Level Estimated
Tue 09:42:00 AM 66.8668 -4.9249 268° West  Level Estimated
Tue 09:43:00 AM 66.8628 -5.2131 268° West  Level Estimated
Tue 09:44:00 AM 66.8582 -5.5013 268° West  Level Estimated
Tue 09:45:00 AM 66.8531 -5.7893 268° West  Level Estimated
Tue 09:46:00 AM 66.8475 -6.0772 267° West  Level Estimated
Tue 09:47:00 AM 66.8413 -6.3650 267° West  Level Estimated
Tue 09:48:00 AM 66.8347 -6.6526 267° West  Level Estimated
Tue 09:49:00 AM 66.8275 -6.9400 266° West  Level Estimated
Tue 09:50:00 AM 66.8198 -7.2273 266° West  Level Estimated
Tue 09:51:00 AM 66.8116 -7.5144 266° West  Level Estimated
Tue 09:52:00 AM 66.8028 -7.8013 266° West  Level Estimated
Tue 09:53:00 AM 66.7936 -8.0879 265° West  Level Estimated
Tue 09:54:00 AM 66.7838 -8.3744 265° West  Level Estimated
Tue 09:55:00 AM 66.7735 -8.6606 265° West  Level Estimated
Tue 09:56:00 AM 66.7627 -8.9466 265° West  Level Estimated
Tue 09:57:00 AM 66.7514 -9.2323 264° West  Level Estimated
Tue 09:58:00 AM 66.7395 -9.5178 264° West  Level Estimated
Tue 09:59:00 AM 66.7271 -9.8029 264° West  Level Estimated
Tue 10:00:00 AM 66.7142 -10.0878 264° West  Level Estimated
Tue 10:01:00 AM 66.7009 -10.3724 263° West  Level Estimated
Tue 10:02:00 AM 66.6869 -10.6566 263° West  Level Estimated
Tue 10:03:00 AM 66.6725 -10.9406 263° West  Level Estimated
Tue 10:04:00 AM 66.6576 -11.2242 263° West  Level Estimated
Tue 10:05:00 AM 66.6422 -11.5074 262° West  Level Estimated
Tue 10:06:00 AM 66.6262 -11.7903 262° West  Level Estimated
Tue 10:07:00 AM 66.6097 -12.0728 262° West  Level Estimated
Tue 10:08:00 AM 66.5928 -12.3550 262° West  Level Estimated
Tue 10:09:00 AM 66.5753 -12.6367 261° West  Level Estimated
Tue 10:10:00 AM 66.5573 -12.9180 261° West  Level Estimated
Tue 10:11:00 AM 66.5388 -13.1990 261° West  Level Estimated
Tue 10:12:00 AM 66.5199 -13.4795 260° West  Level Estimated
Tue 10:13:00 AM 66.5004 -13.7596 260° West  Level Estimated
Tue 10:14:00 AM 66.4804 -14.0392 260° West  Level Estimated
Tue 10:15:00 AM 66.4599 -14.3184 260° West  Level Estimated
Tue 10:16:00 AM 66.4389 -14.5971 259° West  Level Estimated
Tue 10:17:00 AM 66.4175 -14.8753 259° West  Level Estimated
Tue 10:18:00 AM 66.3955 -15.1531 259° West  Level Estimated
Tue 10:19:00 AM 66.3730 -15.4304 259° West  Level Estimated
Tue 10:20:00 AM 66.3501 -15.7071 258° West  Level Estimated
Tue 10:21:00 AM 66.3266 -15.9834 258° West  Level Estimated
Tue 10:22:00 AM 66.3027 -16.2591 258° West  Level Estimated
Tue 10:23:00 AM 66.2783 -16.5343 258° West  Level Estimated
Tue 10:24:00 AM 66.2534 -16.8090 257° West  Level Estimated
Tue 10:25:00 AM 66.2280 -17.0831 257° West  Level Estimated
Tue 10:26:00 AM 66.2021 -17.3566 257° West  Level Estimated
Tue 10:27:00 AM 66.1757 -17.6296 257° West  Level Estimated
Tue 10:28:00 AM 66.1489 -17.9020 256° West  Level Estimated
Tue 10:29:00 AM 66.1216 -18.1739 256° West  Level Estimated
Tue 10:30:00 AM 66.0938 -18.4451 256° West  Level Estimated
Tue 10:31:00 AM 66.0655 -18.7158 256° West  Level Estimated
Tue 10:32:00 AM 66.0368 -18.9858 255° West  Level Estimated
Tue 10:33:00 AM 66.0076 -19.2553 255° West  Level Estimated
Tue 10:34:00 AM 65.9779 -19.5241 255° West  Level Estimated
Tue 10:35:00 AM 65.9478 -19.7922 255° West  Level Estimated
Tue 10:36:00 AM 65.9172 -20.0598 254° West  Level Estimated
Tue 10:37:00 AM 65.8861 -20.3267 254° West  Level Estimated
Tue 10:38:00 AM 65.8545 -20.5930 254° West  Level Estimated
Tue 10:39:00 AM 65.8225 -20.8585 254° West  Level Estimated
Tue 10:40:00 AM 65.7901 -21.1235 253° West  Level Estimated
Tue 10:41:00 AM 65.7571 -21.3877 253° West  Level Estimated
Tue 10:42:00 AM 65.7238 -21.6513 253° West  Level Estimated
Tue 10:43:00 AM 65.6900 -21.9142 253° West  Level Estimated
Tue 10:44:00 AM 65.6557 -22.1764 253° West  Level Estimated
Tue 10:45:00 AM 65.6209 -22.4379 252° West  Level Estimated
Tue 10:46:00 AM 65.5858 -22.6987 252° West  Level Estimated
Tue 10:47:00 AM 65.5502 -22.9588 252° West  Level Estimated
Tue 10:48:00 AM 65.5141 -23.2182 252° West  Level Estimated
Tue 10:49:00 AM 65.4776 -23.4768 251° West  Level Estimated
Tue 10:50:00 AM 65.4407 -23.7348 251° West  Level Estimated
Tue 10:51:00 AM 65.4033 -23.9920 251° West  Level Estimated
Tue 10:52:00 AM 65.3655 -24.2484 251° West  Level Estimated
Tue 10:53:00 AM 65.3272 -24.5042 250° West  Level Estimated
Tue 10:54:00 AM 65.2885 -24.7591 250° West  Level Estimated
Tue 10:55:00 AM 65.2494 -25.0134 250° West  Level Estimated
Tue 10:56:00 AM 65.2099 -25.2668 250° West  Level Estimated
Tue 10:57:00 AM 65.1699 -25.5196 249° West  Level Estimated
Tue 10:58:00 AM 65.1295 -25.7715 249° West  Level Estimated
Tue 10:59:00 AM 65.0887 -26.0227 249° West  Level Estimated
Tue 11:00:00 AM 65.0475 -26.2731 249° West  Level Estimated
Tue 11:01:00 AM 65.0058 -26.5227 249° West  Level Estimated
Tue 11:02:00 AM 64.9638 -26.7716 248° West  Level Estimated
Tue 11:03:00 AM 64.9213 -27.0196 248° West  Level Estimated
Tue 11:04:00 AM 64.8784 -27.2669 248° West  Level Estimated
Tue 11:05:00 AM 64.8351 -27.5134 248° West  Level Estimated
Tue 11:06:00 AM 64.7914 -27.7591 247° West  Level Estimated
Tue 11:07:00 AM 64.7473 -28.0039 247° West  Level Estimated
Tue 11:08:00 AM 64.7028 -28.2480 247° West  Level Estimated
Tue 11:09:00 AM 64.6579 -28.4913 247° West  Level Estimated
Tue 11:10:00 AM 64.6126 -28.7338 247° West  Level Estimated
Tue 11:11:00 AM 64.5669 -28.9754 246° West  Level Estimated
Tue 11:12:00 AM 64.5208 -29.2163 246° West  Level Estimated
Tue 11:13:00 AM 64.4743 -29.4563 246° West  Level Estimated
Tue 11:14:00 AM 64.4274 -29.6955 246° West  Level Estimated
Tue 11:15:00 AM 64.3801 -29.9339 245° Southwest  Level Estimated
Tue 11:16:00 AM 64.3325 -30.1715 245° Southwest  Level Estimated
Tue 11:17:00 AM 64.2844 -30.4083 245° Southwest  Level Estimated
Tue 11:18:00 AM 64.2360 -30.6442 245° Southwest  Level Estimated
Tue 11:19:00 AM 64.1872 -30.8793 245° Southwest  Level Estimated
Tue 11:20:00 AM 64.1380 -31.1135 244° Southwest  Level Estimated
Tue 11:21:00 AM 64.0885 -31.3470 244° Southwest  Level Estimated
Tue 11:22:00 AM 64.0386 -31.5796 244° Southwest  Level Estimated
Tue 11:23:00 AM 63.9883 -31.8113 244° Southwest  Level Estimated
Tue 11:24:00 AM 63.9376 -32.0423 244° Southwest  Level Estimated
Tue 11:25:00 AM 63.8866 -32.2724 243° Southwest  Level Estimated
Tue 11:26:00 AM 63.8352 -32.5016 243° Southwest  Level Estimated
Tue 11:27:00 AM 63.7835 -32.7301 243° Southwest  Level Estimated
Tue 11:28:00 AM 63.7314 -32.9576 243° Southwest  Level Estimated
Tue 11:29:00 AM 63.6789 -33.1844 243° Southwest  Level Estimated
Tue 11:30:00 AM 63.6261 -33.4103 242° Southwest  Level Estimated
Tue 11:31:00 AM 63.5729 -33.6353 242° Southwest  Level Estimated
Tue 11:32:00 AM 63.5194 -33.8596 242° Southwest  Level Estimated
Tue 11:33:00 AM 63.4655 -34.0829 242° Southwest  Level Estimated
Tue 11:34:00 AM 63.4113 -34.3055 242° Southwest  Level Estimated
Tue 11:35:00 AM 63.3567 -34.5272 241° Southwest  Level Estimated
Tue 11:36:00 AM 63.3018 -34.7480 241° Southwest  Level Estimated
Tue 11:37:00 AM 63.2466 -34.9680 241° Southwest  Level Estimated
Tue 11:38:00 AM 63.1910 -35.1872 241° Southwest  Level Estimated
Tue 11:39:00 AM 63.1350 -35.4055 241° Southwest  Level Estimated
Tue 11:40:00 AM 63.0788 -35.6230 240° Southwest  Level Estimated
Tue 11:41:00 AM 63.0222 -35.8396 240° Southwest  Level Estimated
Tue 11:42:00 AM 62.9653 -36.0554 240° Southwest  Level Estimated
Tue 11:43:00 AM 62.9080 -36.2704 240° Southwest  Level Estimated
Tue 11:44:00 AM 62.8504 -36.4845 240° Southwest  Level Estimated
Tue 11:45:00 AM 62.7925 -36.6977 239° Southwest  Level Estimated
Tue 11:46:00 AM 62.7343 -36.9102 239° Southwest  Level Estimated
Tue 11:47:00 AM 62.6758 -37.1218 239° Southwest  Level Estimated
Tue 11:48:00 AM 62.6169 -37.3325 239° Southwest  Level Estimated
Tue 11:49:00 AM 62.5578 -37.5424 239° Southwest  Level Estimated
Tue 11:50:00 AM 62.4983 -37.7515 238° Southwest  Level Estimated
Tue 11:51:00 AM 62.4385 -37.9598 238° Southwest  Level Estimated
Tue 11:52:00 AM 62.3784 -38.1672 238° Southwest  Level Estimated
Tue 11:53:00 AM 62.3180 -38.3738 238° Southwest  Level Estimated
Tue 11:54:00 AM 62.2573 -38.5796 238° Southwest  Level Estimated
Tue 11:55:00 AM 62.1963 -38.7845 238° Southwest  Level Estimated
Tue 11:56:00 AM 62.1349 -38.9886 237° Southwest  Level Estimated
Tue 11:57:00 AM 62.0733 -39.1919 237° Southwest  Level Estimated
Tue 11:58:00 AM 62.0114 -39.3943 237° Southwest  Level Estimated
Tue 11:59:00 AM 61.9492 -39.5959 237° Southwest  Level Estimated
Tue 12:00:00 PM 61.8867 -39.7967 237° Southwest  Level Estimated
Tue 12:01:00 PM 61.8239 -39.9967 236° Southwest  Level Estimated
Tue 12:02:00 PM 61.7608 -40.1959 236° Southwest  Level Estimated
Tue 12:03:00 PM 61.6974 -40.3942 236° Southwest  Level Estimated
Tue 12:04:00 PM 61.6338 -40.5918 236° Southwest  Level Estimated
Tue 12:05:00 PM 61.5698 -40.7885 236° Southwest  Level Estimated
Tue 12:06:00 PM 61.5056 -40.9844 236° Southwest  Level Estimated
Tue 12:07:00 PM 61.4411 -41.1795 235° Southwest  Level Estimated
Tue 12:07:06 PM 62.3340 -49.0830 235° Southwest 453 521 36,000  Level FlightAware ADS-B
Tue 12:07:43 PM 62.2930 -49.1950 232° Southwest 453 521 36,000  Level FlightAware ADS-B
Tue 12:08:00 PM 61.3763 -41.3738 235° Southwest  Level Estimated
Tue 12:08:23 PM 62.2350 -49.3570 233° Southwest 454 522 36,000  Level FlightAware ADS-B
Tue 12:09:17 PM 62.1670 -49.5450 232° Southwest 453 521 36,000  Level FlightAware ADS-B
Tue 12:09:59 PM 62.1180 -49.6820 233° Southwest 452 520 36,000  Level FlightAware ADS-B
Tue 12:10:35 PM 62.0780 -49.7890 231° Southwest 452 520 36,000  Level FlightAware ADS-B
Tue 12:11:10 PM 62.0400 -49.8940 232° Southwest 452 520 36,000  Level FlightAware ADS-B
Tue 12:11:58 PM 61.9870 -50.0370 232° Southwest 452 520 36,000  Level FlightAware ADS-B
Tue 12:12:39 PM 61.9400 -50.2360 243° Southwest 446 513 36,000  Level FlightAware ADS-B
Tue 12:13:16 PM 61.9100 -50.3580 242° Southwest 446 513 36,000  Level FlightAware ADS-B
Tue 12:13:52 PM 61.8630 -50.5670 245° Southwest 442 509 36,000  Level FlightAware ADS-B
Tue 12:14:41 PM 61.8220 -50.7320 242° Southwest 441 507 36,000  Level FlightAware ADS-B
Tue 12:15:18 PM 61.7870 -50.8740 243° Southwest 441 507 36,000  Level FlightAware ADS-B
Tue 12:15:54 PM 61.7580 -50.9900 242° Southwest 441 507 36,000  Level FlightAware ADS-B
Tue 12:16:30 PM 61.7290 -51.1070 242° Southwest 441 507 36,000  Level FlightAware ADS-B
Tue 12:17:08 PM 61.6980 -51.2290 242° Southwest 441 507 36,000  Level FlightAware ADS-B
Tue 12:17:44 PM 61.6680 -51.3460 242° Southwest 441 507 36,000  Level FlightAware ADS-B
Tue 12:18:20 PM 61.6390 -51.4620 242° Southwest 441 507 36,000  Level FlightAware ADS-B
Tue 12:18:56 PM 61.6100 -51.5780 242° Southwest 441 507 36,000  Level FlightAware ADS-B
Tue 12:19:36 PM 61.5400 -51.8470 241° Southwest 438 504 36,000  Level FlightAware ADS-B
Tue 12:20:01 PM 61.5190 -51.9260 241° Southwest 438 504 36,000  Level FlightAware ADS-B
Tue 12:22:14 PM 61.4080 -52.3450 241° Southwest 438 504 36,000  Level FlightAware ADS-B
Tue 12:22:59 PM 61.3710 -52.4870 242° Southwest 438 504 36,000  Level FlightAware ADS-B
Tue 12:23:36 PM 61.3400 -52.6030 241° Southwest 438 504 36,000  Level FlightAware ADS-B
Tue 12:24:00 PM 61.3200 -52.6790 241° Southwest 438 504 36,000  Level FlightAware ADS-B
Tue 12:25:18 PM 61.2540 -52.9230 241° Southwest 438 504 36,000  Level FlightAware ADS-B
Tue 12:25:55 PM 61.2230 -53.0390 241° Southwest 438 504 36,000  Level FlightAware ADS-B
Tue 12:26:32 PM 61.1930 -53.1550 242° Southwest 438 504 36,000  Level FlightAware ADS-B
Tue 12:27:08 PM 61.1620 -53.2670 240° Southwest 438 504 36,000  Level FlightAware ADS-B
Tue 12:27:57 PM 61.1220 -53.4200 242° Southwest 438 504 36,000  Level FlightAware ADS-B
Tue 12:28:33 PM 61.0910 -53.5320 240° Southwest 438 504 36,000  Level FlightAware ADS-B
Tue 12:29:07 PM 61.0630 -53.6380 241° Southwest 438 504 36,000  Level FlightAware ADS-B
Tue 12:31:00 PM 60.9006 -53.9235 221° Southwest  Level Estimated
Tue 12:32:00 PM 60.8142 -54.0739 220° Southwest  Level Estimated
Tue 12:33:00 PM 60.7275 -54.2235 220° Southwest  Level Estimated
Tue 12:34:00 PM 60.6407 -54.3723 220° Southwest  Level Estimated
Tue 12:35:00 PM 60.5538 -54.5203 220° Southwest  Level Estimated
Tue 12:36:00 PM 60.4666 -54.6675 220° Southwest  Level Estimated
Tue 12:37:00 PM 60.3716 -54.8269 220° Southwest  Level Estimated
Tue 12:38:00 PM 60.2764 -54.9853 220° Southwest  Level Estimated
Tue 12:39:00 PM 60.1810 -55.1428 219° Southwest  Level Estimated
Tue 12:40:00 PM 60.0854 -55.2994 219° Southwest  Level Estimated
Tue 12:41:00 PM 59.9897 -55.4551 219° Southwest  Level Estimated
Tue 12:42:00 PM 59.8937 -55.6098 219° Southwest  Level Estimated
Tue 12:43:00 PM 59.7976 -55.7637 219° Southwest  Level Estimated
Tue 12:44:00 PM 59.7013 -55.9167 219° Southwest  Level Estimated
Tue 12:45:00 PM 59.6048 -56.0688 219° Southwest  Level Estimated
Tue 12:46:00 PM 59.5081 -56.2201 218° Southwest  Level Estimated
Tue 12:47:00 PM 59.4113 -56.3705 218° Southwest  Level Estimated
Tue 12:48:00 PM 59.3143 -56.5200 218° Southwest  Level Estimated
Tue 12:49:00 PM 59.2171 -56.6687 218° Southwest  Level Estimated
Tue 12:50:00 PM 59.1197 -56.8165 218° Southwest  Level Estimated
Tue 12:51:00 PM 59.0222 -56.9635 218° Southwest  Level Estimated
Tue 12:51:19 PM 59.3500 -58.5333 217° Southwest 460 529 36,000  Level Gander Center
Tue 12:52:00 PM 58.9245 -57.1096 218° Southwest  Level Estimated
Tue 12:52:19 PM 59.2667 -58.6500 216° Southwest 460 529 36,000  Level Gander Center
Tue 12:53:00 PM 58.8267 -57.2550 218° Southwest  Level Estimated
Tue 12:53:19 PM 59.1500 -58.7833 210° Southwest 460 529 36,000  Level Gander Center
Tue 12:54:00 PM 58.7299 -57.3977 217° Southwest  Level Estimated
Tue 12:54:19 PM 59.0333 -58.8833 204° Southwest 450 518 36,000  Level Gander Center
Tue 12:55:00 PM 58.6330 -57.5396 217° Southwest  Level Estimated
Tue 12:55:19 PM 58.9167 -59.0000 207° Southwest 450 518 36,000  Level Gander Center
Tue 12:56:00 PM 58.5359 -57.6807 217° Southwest  Level Estimated
Tue 12:56:19 PM 58.8167 -59.1333 215° Southwest 450 518 36,000  Level Gander Center
Tue 12:57:19 PM 58.7000 -59.2333 204° Southwest 450 518 36,000  Level Gander Center
Tue 12:58:19 PM 58.5833 -59.3333 204° Southwest 450 518 36,000  Level Gander Center
Tue 12:59:19 PM 58.4833 -59.4333 208° Southwest 440 506 36,000  Level Gander Center
Tue 01:00:19 PM 58.3833 -59.5667 215° Southwest 440 506 36,000  Level Gander Center
Tue 01:01:19 PM 58.2667 -59.6667 204° Southwest 440 506 36,000  Level Gander Center
Tue 01:02:19 PM 58.1667 -59.7667 208° Southwest 440 506 36,000  Level Gander Center
Tue 01:03:19 PM 58.0667 -59.8667 208° Southwest 440 506 36,000  Level Gander Center
Tue 01:04:19 PM 57.9667 -59.9667 208° Southwest 440 506 36,000  Level Gander Center
Tue 01:05:19 PM 57.8500 -60.0667 205° Southwest 440 506 36,000  Level Gander Center
Tue 01:06:19 PM 57.7500 -60.1833 212° Southwest 440 506 36,000  Level Gander Center
Tue 01:07:19 PM 57.6333 -60.2833 205° Southwest 440 506 36,000  Level Gander Center
Tue 01:08:19 PM 57.5167 -60.3833 205° Southwest 440 506 36,000  Level Gander Center
Tue 01:09:19 PM 57.4167 -60.4833 208° Southwest 440 506 36,000  Level Gander Center
Tue 01:10:19 PM 57.3000 -60.6000 208° Southwest 440 506 36,000  Level Gander Center
Tue 01:11:19 PM 57.1833 -60.7000 205° Southwest 440 506 36,000  Level Gander Center
Tue 01:12:19 PM 57.0833 -60.7833 204° Southwest 450 518 36,000  Level Gander Center
Tue 01:13:19 PM 56.9500 -60.9167 209° Southwest 430 495 36,000  Level Gander Center
Tue 01:14:19 PM 56.8500 -61.0000 205° Southwest 440 506 36,000  Level Gander Center
Tue 01:15:19 PM 56.7333 -61.1333 212° Southwest 440 506 36,000  Level Gander Center
Tue 01:16:19 PM 56.6167 -61.2167 201° Southwest 440 506 36,000  Level Gander Center
Tue 01:17:19 PM 56.5167 -61.3167 209° Southwest 440 506 36,000  Level Gander Center
Tue 01:18:19 PM 56.4000 -61.4000 202° Southwest 440 506 36,000  Level Gander Center
Tue 01:19:19 PM 56.3000 -61.5000 209° Southwest 440 506 36,000  Level Gander Center
Tue 01:20:19 PM 56.1833 -61.6167 209° Southwest 440 506 36,000  Level Gander Center
Tue 01:21:19 PM 56.0667 -61.7000 202° Southwest 450 518 36,000  Level Gander Center
Tue 01:22:19 PM 55.9667 -61.7833 205° Southwest 450 518 36,000  Level Gander Center
Tue 01:23:19 PM 55.8500 -61.9000 209° Southwest 450 518 36,000  Level Gander Center
Tue 01:24:19 PM 55.7333 -62.0000 206° Southwest 450 518 36,000  Level Gander Center
Tue 01:25:19 PM 55.6167 -62.0833 202° Southwest 450 518 36,000  Level Gander Center
Tue 01:26:19 PM 55.5167 -62.1667 205° Southwest 440 506 36,000  Level Gander Center
Tue 01:27:19 PM 55.4000 -62.2833 210° Southwest 440 506 36,000  Level Gander Center
Tue 01:28:19 PM 55.3000 -62.3667 205° Southwest 440 506 36,000  Level Gander Center
Tue 01:29:19 PM 55.1833 -62.4500 202° Southwest 450 518 36,000  Level Gander Center
Tue 01:30:19 PM 55.0667 -62.5333 202° Southwest 450 518 36,000  Level Gander Center
Tue 01:31:19 PM 54.9667 -62.6500 214° Southwest 450 518 36,000  Level Gander Center
Tue 01:32:19 PM 54.8333 -62.7333 200° South 450 518 36,000  Level Gander Center
Tue 01:33:57 PM 54.6500 -62.8667 203° Southwest 450 518 36,000  Level Moncton Center
Tue 01:34:57 PM 54.5333 -62.9500 203° Southwest 450 518 36,000  Level Moncton Center
Tue 01:35:57 PM 54.4333 -63.0500 210° Southwest 450 518 36,000  Level Moncton Center
Tue 01:36:57 PM 54.3000 -63.1333 200° South 450 518 36,000  Level Moncton Center
Tue 01:37:57 PM 54.2000 -63.2333 210° Southwest 450 518 36,000  Level Moncton Center
Tue 01:38:57 PM 54.0833 -63.3167 203° Southwest 450 518 36,000  Level Moncton Center
Tue 01:39:57 PM 53.9667 -63.4000 203° Southwest 450 518 36,000  Level Moncton Center
Tue 01:40:57 PM 53.8500 -63.4833 203° Southwest 450 518 36,000  Level Moncton Center
Tue 01:42:57 PM 53.6167 -63.7000 209° Southwest 460 529 36,000  Level Moncton Center
Tue 01:43:57 PM 53.5000 -63.7500 194° South 450 518 36,000  Level Moncton Center
Tue 01:44:57 PM 53.3833 -63.8333 203° Southwest 450 518 36,000  Level Moncton Center
Tue 01:45:57 PM 53.2667 -63.9500 211° Southwest 460 529 36,000  Level Moncton Center
Tue 01:46:57 PM 53.1500 -64.0000 194° South 460 529 36,000  Level Moncton Center
Tue 01:47:57 PM 53.0333 -64.1167 211° Southwest 460 529 36,000  Level Moncton Center
Tue 01:48:57 PM 52.9167 -64.2000 203° Southwest 450 518 36,000  Level Moncton Center
Tue 01:49:57 PM 52.8000 -64.2833 203° Southwest 460 529 36,000  Level Moncton Center
Tue 01:50:57 PM 52.6833 -64.3667 203° Southwest 460 529 36,000  Level Moncton Center
Tue 01:51:57 PM 52.5667 -64.4500 203° Southwest 460 529 36,000  Level Moncton Center
Tue 01:52:57 PM 52.4667 -64.5333 207° Southwest 460 529 36,000  Level Moncton Center
Tue 01:53:57 PM 52.3333 -64.6167 201° Southwest 460 529 36,000  Level Moncton Center
Tue 01:54:57 PM 52.2167 -64.7000 204° Southwest 460 529 36,000  Level Moncton Center
Tue 01:55:57 PM 52.1000 -64.7833 204° Southwest 460 529 36,000  Level Moncton Center
Tue 01:56:57 PM 51.9833 -64.8667 204° Southwest 460 529 36,000  Level Moncton Center
Tue 01:57:57 PM 51.8667 -64.9333 199° South 460 529 36,000  Level Moncton Center
Tue 01:58:57 PM 51.7500 -65.0167 204° Southwest 460 529 36,000  Level Moncton Center
Tue 01:59:57 PM 51.6333 -65.1000 204° Southwest 460 529 36,000  Level Moncton Center
Tue 02:00:57 PM 51.5167 -65.1833 204° Southwest 460 529 36,000  Level Moncton Center
Tue 02:01:57 PM 51.4000 -65.2500 200° South 460 529 36,000  Level Moncton Center
Tue 02:02:57 PM 51.2833 -65.3667 212° Southwest 460 529 36,000  Level Moncton Center
Tue 02:03:57 PM 51.1667 -65.4333 200° South 460 529 36,000  Level Moncton Center
Tue 02:04:57 PM 51.0500 -65.5167 204° Southwest 470 541 36,000  Level Moncton Center
Tue 02:05:57 PM 50.9167 -65.6000 202° Southwest 460 529 36,000  Level Moncton Center
Tue 02:06:57 PM 50.8000 -65.6667 200° South 460 529 36,000 650 Level Moncton Center
Tue 02:07:57 PM 50.6833 -65.7500 204° Southwest 460 529 37,300 1,000 Climbing Moncton Center
Tue 02:08:57 PM 50.5667 -65.8167 200° South 460 529 38,000 350 Climbing Moncton Center
Tue 02:09:57 PM 50.4500 -65.9000 204° Southwest 460 529 38,000  Level Moncton Center
Tue 02:10:57 PM 50.3333 -65.9667 200° South 460 529 38,000  Level Moncton Center
Tue 02:11:57 PM 50.2000 -66.0500 202° Southwest 460 529 38,000  Level Moncton Center
Tue 02:12:57 PM 50.1000 -66.1167 203° Southwest 460 529 38,000  Level Moncton Center
Tue 02:13:57 PM 49.9833 -66.2000 205° Southwest 460 529 38,000  Level Moncton Center
Tue 02:14:57 PM 49.8500 -66.2667 198° South 460 529 38,000  Level Moncton Center
Tue 02:15:57 PM 49.7500 -66.3333 203° Southwest 460 529 38,000  Level Moncton Center
Tue 02:16:57 PM 49.6000 -66.4167 200° South 460 529 38,000  Level Moncton Center
Tue 02:17:57 PM 49.4833 -66.4833 200° South 460 529 38,000  Level Moncton Center
Tue 02:18:57 PM 49.3667 -66.5833 209° Southwest 460 529 38,000  Level Moncton Center
Tue 02:19:57 PM 49.2500 -66.6500 200° South 460 529 38,000  Level Moncton Center
Tue 02:20:57 PM 49.1333 -66.7333 205° Southwest 470 541 38,000  Level Moncton Center
Tue 02:21:57 PM 49.0167 -66.8000 201° Southwest 470 541 38,000  Level Moncton Center
Tue 02:22:57 PM 48.9000 -66.8667 201° Southwest 470 541 38,000  Level Moncton Center
Tue 02:23:57 PM 48.7833 -66.9333 201° Southwest 460 529 38,000  Level Moncton Center
Tue 02:24:57 PM 48.6500 -67.0000 198° South 470 541 38,000  Level Moncton Center
Tue 02:25:57 PM 48.5167 -67.0833 202° Southwest 460 529 38,000  Level Moncton Center
Tue 02:26:57 PM 48.4167 -67.1500 204° Southwest 460 529 38,000  Level Moncton Center
Tue 02:27:57 PM 48.2833 -67.2167 198° South 460 529 38,000  Level Moncton Center
Tue 02:28:57 PM 48.1833 -67.2833 204° Southwest 460 529 38,000  Level Moncton Center
Tue 02:29:57 PM 48.0667 -67.3500 201° Southwest 460 529 38,000  Level Moncton Center
Tue 02:36:10 PM 47.3650 -67.8620 201° Southwest 38,000  Level FlightAware ADS-B
Tue 02:36:57 PM 47.2667 -67.9167 201° Southwest 450 518 38,000  Level Moncton Center
Tue 02:37:27 PM 47.2247 -67.9661 219° Southwest 459 528 38,000  Level Boston Center
Tue 02:38:25 PM 47.1136 -68.0544 208° Southwest 459 528 38,000  Level Boston Center
Tue 02:39:25 PM 47.0008 -68.1547 211° Southwest 469 540 38,000  Level Boston Center
Tue 02:44:48 PM 46.3960 -68.6050 211° Southwest 457 526 38,000  Level FlightAware ADS-B
Tue 02:45:18 PM 46.3380 -68.6490 208° Southwest 457 526 38,000  Level FlightAware ADS-B
Tue 02:45:56 PM 46.2770 -68.6940 207° Southwest 457 526 38,000  Level FlightAware ADS-B
Tue 02:46:42 PM 46.1760 -68.7710 208° Southwest 457 526 38,000  Level FlightAware ADS-B
Tue 02:47:33 PM 46.0900 -68.8340 207° Southwest 457 526 38,000  Level FlightAware ADS-B
Tue 02:48:02 PM 46.1320 -68.8030 27° Northeast 456 525 38,000  Level FlightAware ADS-B
Tue 02:48:54 PM 45.9420 -68.9440 207° Southwest 455 524 38,000  Level FlightAware ADS-B
Tue 02:49:35 PM 45.9400 -68.9450 199° South 455 524 38,000  Level FlightAware ADS-B
Tue 02:50:22 PM 45.7670 -69.0720 207° Southwest 453 521 38,000  Level FlightAware ADS-B
Tue 02:51:07 PM 45.6860 -69.1320 207° Southwest 453 521 38,000  Level FlightAware ADS-B
Tue 02:51:42 PM 45.6860 -69.1320 207° Southwest 452 520 38,000  Level FlightAware ADS-B
Tue 02:52:17 PM 45.5580 -69.2250 207° Southwest 449 517 38,000  Level FlightAware ADS-B
Tue 02:52:52 PM 45.4860 -69.2780 207° Southwest 449 517 38,000  Level FlightAware ADS-B
Tue 02:53:26 PM 45.4250 -69.3210 206° Southwest 447 514 38,000  Level FlightAware ADS-B
Tue 02:54:08 PM 45.3450 -69.3790 207° Southwest 448 516 38,000  Level FlightAware ADS-B
Tue 02:54:52 PM 45.2640 -69.4380 207° Southwest 448 516 38,000  Level FlightAware ADS-B
Tue 02:55:26 PM 45.2020 -69.4820 207° Southwest 449 517 38,000  Level FlightAware ADS-B
Tue 02:56:00 PM 45.1400 -69.5270 207° Southwest 447 514 38,000  Level FlightAware ADS-B
Tue 02:56:34 PM 45.0770 -69.5720 207° Southwest 448 516 38,000  Level FlightAware ADS-B
Tue 02:57:18 PM 44.9940 -69.6300 206° Southwest 446 513 38,000  Level FlightAware ADS-B
Tue 02:57:52 PM 44.9310 -69.6750 207° Southwest 448 516 38,000  Level FlightAware ADS-B
Tue 02:58:26 PM 44.8690 -69.7190 207° Southwest 449 517 38,000  Level FlightAware ADS-B
Tue 02:59:10 PM 44.7870 -69.7770 207° Southwest 452 520 38,000  Level FlightAware ADS-B
Tue 02:59:34 PM 44.7430 -69.8080 207° Southwest 453 521 38,000  Level FlightAware ADS-B
Tue 02:59:58 PM 44.6970 -69.8410 207° Southwest 454 522 38,000  Level FlightAware ADS-B
Tue 03:02:14 PM 44.4940 -69.9820 206° Southwest 454 522 38,000  Level FlightAware ADS-B
Tue 03:02:50 PM 44.4360 -70.0210 206° Southwest 454 522 38,000  Level FlightAware ADS-B
Tue 03:03:26 PM 44.3060 -70.1130 207° Southwest 452 520 38,000  Level FlightAware ADS-B
Tue 03:03:58 PM 44.2460 -70.1550 207° Southwest 451 519 38,000  Level FlightAware ADS-B
Tue 03:04:34 PM 44.1820 -70.1990 206° Southwest 450 518 38,000  Level FlightAware ADS-B
Tue 03:05:00 PM 44.1320 -70.2330 206° Southwest 450 518 38,000  Level FlightAware ADS-B
Tue 03:06:06 PM 44.0080 -70.3180 206° Southwest 450 518 38,000  Level FlightAware ADS-B
Tue 03:06:42 PM 43.9410 -70.3640 206° Southwest 449 517 38,000  Level FlightAware ADS-B
Tue 03:07:12 PM 43.8870 -70.4010 206° Southwest 448 516 38,000  Level FlightAware ADS-B
Tue 03:07:56 PM 43.8040 -70.4570 206° Southwest 446 513 38,000  Level FlightAware ADS-B
Tue 03:08:32 PM 43.7380 -70.5020 206° Southwest 446 513 38,000  Level FlightAware ADS-B
Tue 03:09:14 PM 43.6600 -70.5550 206° Southwest 447 514 38,000  Level FlightAware ADS-B
Tue 03:09:51 PM 43.5930 -70.6000 206° Southwest 446 513 38,000  Level FlightAware ADS-B
Tue 03:10:24 PM 43.5310 -70.6410 206° Southwest 446 513 38,000  Level FlightAware ADS-B
Tue 03:11:04 PM 43.4550 -70.6920 206° Southwest 445 512 38,000  Level FlightAware ADS-B
Tue 03:11:42 PM 43.3920 -70.7350 206° Southwest 443 510 38,000  Level FlightAware ADS-B
Tue 03:12:18 PM 43.3190 -70.7830 206° Southwest 442 509 38,000  Level FlightAware ADS-B
Tue 03:12:54 PM 43.2520 -70.8280 206° Southwest 444 511 38,000  Level FlightAware ADS-B
Tue 03:13:26 PM 43.1920 -70.8680 206° Southwest 445 512 38,000  Level FlightAware ADS-B
Tue 03:14:02 PM 43.1280 -70.9190 210° Southwest 440 506 38,000  Level FlightAware ADS-B
Tue 03:14:34 PM 43.0770 -70.9690 216° Southwest 441 507 38,000  Level FlightAware ADS-B
Tue 03:15:12 PM 43.0180 -71.0280 216° Southwest 442 509 38,000  Level FlightAware ADS-B
Tue 03:15:48 PM 42.9530 -71.0910 215° Southwest 443 510 38,000  Level FlightAware ADS-B
Tue 03:16:20 PM 42.9000 -71.1430 216° Southwest 444 511 38,000  Level FlightAware ADS-B
Tue 03:16:56 PM 42.8400 -71.2010 215° Southwest 445 512 38,000  Level FlightAware ADS-B
Tue 03:17:32 PM 42.7810 -71.2590 216° Southwest 444 511 38,000  Level FlightAware ADS-B
Tue 03:18:04 PM 42.7270 -71.3110 215° Southwest 443 510 38,000  Level FlightAware ADS-B
Tue 03:18:42 PM 42.6680 -71.3690 216° Southwest 443 510 38,000  Level FlightAware ADS-B
Tue 03:19:17 PM 42.6060 -71.4290 215° Southwest 444 511 38,000  Level FlightAware ADS-B
Tue 03:19:53 PM 42.5460 -71.4870 215° Southwest 445 512 38,000  Level FlightAware ADS-B
Tue 03:20:29 PM 42.4860 -71.5440 215° Southwest 446 513 38,000  Level FlightAware ADS-B
Tue 03:21:01 PM 42.4310 -71.5970 215° Southwest 445 512 38,000  Level FlightAware ADS-B
Tue 03:21:37 PM 42.3700 -71.6560 216° Southwest 444 511 38,000  Level FlightAware ADS-B
Tue 03:22:09 PM 42.3170 -71.7070 215° Southwest 443 510 38,000  Level FlightAware ADS-B
Tue 03:22:45 PM 42.2570 -71.7640 215° Southwest 442 509 38,000  Level FlightAware ADS-B
Tue 03:23:21 PM 42.1980 -71.8200 215° Southwest 441 507 38,000  Level FlightAware ADS-B
Tue 03:23:57 PM 42.1350 -71.8790 215° Southwest 444 511 38,000  Level FlightAware ADS-B
Tue 03:24:29 PM 42.0830 -71.9290 216° Southwest 444 511 38,000  Level FlightAware ADS-B
Tue 03:25:05 PM 42.0220 -71.9860 215° Southwest 444 511 38,000  Level FlightAware ADS-B
Tue 03:25:41 PM 41.9620 -72.0430 215° Southwest 445 512 38,000  Level FlightAware ADS-B
Tue 03:26:17 PM 41.9010 -72.1000 215° Southwest 447 514 38,000  Level FlightAware ADS-B
Tue 03:26:58 PM 41.8360 -72.1610 215° Southwest 448 516 38,000  Level FlightAware ADS-B
Tue 03:27:45 PM 41.7610 -72.2320 215° Southwest 450 518 38,000  Level FlightAware ADS-B
Tue 03:28:35 PM 41.6670 -72.3190 215° Southwest 451 519 38,000  Level FlightAware ADS-B
Tue 03:29:10 PM 41.6060 -72.3750 214° Southwest 452 520 38,000  Level FlightAware ADS-B
Tue 03:29:47 PM 41.5440 -72.4330 215° Southwest 452 520 38,000  Level FlightAware ADS-B
Tue 03:30:24 PM 41.4830 -72.4900 215° Southwest 453 521 38,000  Level FlightAware ADS-B
Tue 03:30:54 PM 41.4370 -72.5320 214° Southwest 454 522 38,000  Level FlightAware ADS-B
Tue 03:31:31 PM 41.3660 -72.5970 214° Southwest 453 521 38,000  Level FlightAware ADS-B
Tue 03:32:06 PM 41.3060 -72.6530 215° Southwest 453 521 38,000  Level FlightAware ADS-B
Tue 03:32:39 PM 41.2460 -72.7070 214° Southwest 455 524 38,000  Level FlightAware ADS-B
Tue 03:33:17 PM 41.1810 -72.7520 208° Southwest 461 531 38,000  Level FlightAware ADS-B
Tue 03:33:50 PM 41.1140 -72.7920 204° Southwest 461 531 38,000  Level FlightAware ADS-B
Tue 03:34:26 PM 41.0430 -72.8360 205° Southwest 460 529 38,000  Level FlightAware ADS-B
Tue 03:35:02 PM 40.9700 -72.8800 204° Southwest 458 527 38,000  Level FlightAware ADS-B
Tue 03:35:38 PM 40.8993 -72.9224 204° Southwest 457 526 38,000  Level FlightAware ADS-B
Tue 03:36:11 PM 40.8371 -72.9602 205° Southwest 456 525 38,000  Level FlightAware ADS-B
Tue 03:36:41 PM 40.7795 -72.9954 205° Southwest 457 526 38,000  Level FlightAware ADS-B
Tue 03:37:11 PM 40.7216 -73.0311 205° Southwest 458 527 38,000  Level FlightAware ADS-B
Tue 03:37:35 PM 40.6772 -73.0600 206° Southwest 455 524 38,000  Level FlightAware ADS-B
Tue 03:37:51 PM 40.6484 -73.0853 214° Southwest 450 518 38,000  Level FlightAware ADS-B
Tue 03:38:24 PM 40.5945 -73.1379 217° Southwest 451 519 38,000  Level FlightAware ADS-B
Tue 03:38:56 PM 40.5393 -73.1910 216° Southwest 451 519 38,000  Level FlightAware ADS-B
Tue 03:39:38 PM 40.4686 -73.2589 216° Southwest 451 519 38,000  Level FlightAware ADS-B
Tue 03:40:19 PM 40.3997 -73.3249 216° Southwest 451 519 38,000  Level FlightAware ADS-B
Tue 03:40:52 PM 40.3450 -73.3780 217° Southwest 453 521 38,000  Level FlightAware ADS-B
Tue 03:41:08 PM 40.3170 -73.4037 215° Southwest 454 522 38,000  Level FlightAware ADS-B
Tue 03:41:40 PM 40.2624 -73.4539 215° Southwest 456 525 38,000  Level FlightAware ADS-B
Tue 03:42:11 PM 40.2068 -73.4982 211° Southwest 459 528 38,000  Level FlightAware ADS-B
Tue 03:42:50 PM 40.1368 -73.5544 212° Southwest 458 527 38,000  Level FlightAware ADS-B
Tue 03:43:21 PM 40.0803 -73.6005 212° Southwest 457 526 38,000  Level FlightAware ADS-B
Tue 03:43:55 PM 40.0196 -73.6502 212° Southwest 457 526 38,000  Level FlightAware ADS-B
Tue 03:44:27 PM 39.9613 -73.6977 212° Southwest 459 528 38,000  Level FlightAware ADS-B
Tue 03:44:58 PM 39.9070 -73.7420 212° Southwest 460 529 38,000  Level FlightAware ADS-B
Tue 03:45:09 PM 39.8858 -73.7591 212° Southwest 461 531 38,000  Level FlightAware ADS-B
Tue 03:45:43 PM 39.8250 -73.8084 212° Southwest 464 534 38,000  Level FlightAware ADS-B
Tue 03:46:14 PM 39.7683 -73.8543 212° Southwest 464 534 38,000  Level FlightAware ADS-B
Tue 03:46:45 PM 39.7126 -73.8994 212° Southwest 465 535 38,000  Level FlightAware ADS-B
Tue 03:47:25 PM 39.6378 -73.9597 212° Southwest 465 535 38,000  Level FlightAware ADS-B
Tue 03:47:57 PM 39.5807 -74.0056 212° Southwest 464 534 38,000  Level FlightAware ADS-B
Tue 03:48:30 PM 39.5201 -74.0542 212° Southwest 464 534 38,000  Level FlightAware ADS-B
Tue 03:49:00 PM 39.4652 -74.0983 212° Southwest 465 535 38,000  Level FlightAware ADS-B
Tue 03:49:35 PM 39.4024 -74.1484 212° Southwest 466 536 38,000  Level FlightAware ADS-B
Tue 03:50:05 PM 39.3469 -74.1928 212° Southwest 466 536 38,000  Level FlightAware ADS-B
Tue 03:50:39 PM 39.2839 -74.2428 212° Southwest 466 536 38,000  Level FlightAware ADS-B
Tue 03:51:15 PM 39.2191 -74.2944 212° Southwest 466 536 38,000  Level FlightAware ADS-B
Tue 03:52:17 PM 39.1042 -74.3854 212° Southwest 465 535 38,000  Level FlightAware ADS-B
Tue 03:52:48 PM 39.0476 -74.4302 212° Southwest 465 535 38,000  Level FlightAware ADS-B
Tue 03:53:22 PM 38.9849 -74.4796 211° Southwest 466 536 38,000  Level FlightAware ADS-B
Tue 03:53:55 PM 38.9256 -74.5262 211° Southwest 467 537 38,000  Level FlightAware ADS-B
Tue 03:54:25 PM 38.8697 -74.5702 212° Southwest 469 540 38,000  Level FlightAware ADS-B
Tue 03:54:55 PM 38.8135 -74.6142 211° Southwest 471 542 38,000  Level FlightAware ADS-B
Tue 03:55:30 PM 38.7479 -74.6656 211° Southwest 473 544 38,000  Level FlightAware ADS-B
Tue 03:56:01 PM 38.6900 -74.7107 211° Southwest 475 547 38,000  Level FlightAware ADS-B
Tue 03:56:35 PM 38.6276 -74.7593 211° Southwest 475 547 38,000  Level FlightAware ADS-B
Tue 03:57:11 PM 38.5589 -74.8127 211° Southwest 475 547 38,000  Level FlightAware ADS-B
Tue 03:57:41 PM 38.5024 -74.8566 211° Southwest 475 547 38,000  Level FlightAware ADS-B
Tue 03:58:11 PM 38.4480 -74.8986 211° Southwest 472 543 38,000  Level FlightAware ADS-B
Tue 03:58:49 PM 38.3759 -74.9543 211° Southwest 472 543 38,000  Level FlightAware ADS-B
Tue 03:59:20 PM 38.3188 -74.9983 211° Southwest 470 541 38,000  Level FlightAware ADS-B
Tue 03:59:51 PM 38.2608 -75.0429 211° Southwest 471 542 38,000  Level FlightAware ADS-B
Tue 04:00:22 PM 38.2036 -75.0870 211° Southwest 471 542 38,000  Level FlightAware ADS-B
Tue 04:00:53 PM 38.1454 -75.1316 211° Southwest 471 542 38,000  Level FlightAware ADS-B
Tue 04:01:24 PM 38.0868 -75.1766 211° Southwest 473 544 38,000  Level FlightAware ADS-B
Tue 04:01:55 PM 38.0297 -75.2202 211° Southwest 473 544 38,000  Level FlightAware ADS-B
Tue 04:02:25 PM 37.9737 -75.2628 211° Southwest 472 543 38,000  Level FlightAware ADS-B
Tue 04:03:16 PM 37.8810 -75.3340 211° Southwest 462 532 38,000  Level FlightAware ADS-B
Tue 04:03:30 PM 37.8550 -75.3530 210° Southwest 456 525 38,000  Level FlightAware ADS-B
Tue 04:04:48 PM 37.7480 -75.4340 211° Southwest 456 525 38,000  Level FlightAware ADS-B
Tue 04:05:00 PM 37.6896 -75.4783 211° Southwest 456 525 38,000  Level FlightAware ADS-B
Tue 04:05:30 PM 37.6351 -75.5194 211° Southwest 457 526 38,000  Level FlightAware ADS-B
Tue 04:06:01 PM 37.5798 -75.5611 211° Southwest 458 527 38,000  Level FlightAware ADS-B
Tue 04:06:32 PM 37.5233 -75.6035 211° Southwest 459 528 38,000  Level FlightAware ADS-B
Tue 04:07:04 PM 37.4655 -75.6468 211° Southwest 459 528 38,000  Level FlightAware ADS-B
Tue 04:09:34 PM 37.1960 -75.8480 211° Southwest 460 529 38,000  Level FlightAware ADS-B
Tue 04:10:02 PM 37.1385 -75.8907 211° Southwest 460 529 38,000  Level FlightAware ADS-B
Tue 04:10:34 PM 37.0809 -75.9335 211° Southwest 459 528 38,000  Level FlightAware ADS-B
Tue 04:11:06 PM 37.0225 -75.9767 211° Southwest 459 528 38,000  Level FlightAware ADS-B
Tue 04:11:37 PM 36.9660 -76.0184 211° Southwest 459 528 38,000  Level FlightAware ADS-B
Tue 04:12:11 PM 36.9043 -76.0640 211° Southwest 461 531 38,000  Level FlightAware ADS-B
Tue 04:12:56 PM 36.8201 -76.1259 210° Southwest 464 534 38,000  Level FlightAware ADS-B
Tue 04:13:41 PM 36.7610 -76.1690 210° Southwest 464 534 38,000  Level FlightAware ADS-B
Tue 04:14:19 PM 36.6658 -76.2390 211° Southwest 464 534 38,000  Level FlightAware ADS-B
Tue 04:14:57 PM 36.5950 -76.2910 211° Southwest 468 539 38,000  Level FlightAware ADS-B
Tue 04:15:34 PM 36.5330 -76.3350 210° Southwest 468 539 38,000  Level FlightAware ADS-B
Tue 04:16:11 PM 36.4740 -76.3780 210° Southwest 468 539 38,000  Level FlightAware ADS-B
Tue 04:16:57 PM 36.3780 -76.4480 210° Southwest 471 542 38,000  Level FlightAware ADS-B
Tue 04:17:27 PM 36.3150 -76.4940 210° Southwest 473 544 38,000  Level FlightAware ADS-B
Tue 04:18:05 PM 36.2540 -76.5380 210° Southwest 473 544 38,000  Level FlightAware ADS-B
Tue 04:18:41 PM 36.1960 -76.5790 210° Southwest 473 544 38,000  Level FlightAware ADS-B
Tue 04:19:17 PM 36.1380 -76.6210 210° Southwest 473 544 38,000  Level FlightAware ADS-B
Tue 04:19:53 PM 36.0800 -76.6620 210° Southwest 473 544 38,000  Level FlightAware ADS-B
Tue 04:20:57 PM 35.9770 -76.7360 210° Southwest 473 544 38,000  Level FlightAware ADS-B
Tue 04:21:42 PM 35.9040 -76.7880 210° Southwest 473 544 38,000  Level FlightAware ADS-B
Tue 04:22:19 PM 35.8450 -76.8300 210° Southwest 473 544 38,000  Level FlightAware ADS-B
Tue 04:22:55 PM 35.7870 -76.8710 210° Southwest 473 544 38,000  Level FlightAware ADS-B
Tue 04:24:17 PM 35.6550 -76.9650 210° Southwest 473 544 38,000  Level FlightAware ADS-B
Tue 04:24:53 PM 35.5970 -77.0060 210° Southwest 473 544 38,000  Level FlightAware ADS-B
Tue 04:25:31 PM 35.5350 -77.0500 210° Southwest 473 544 38,000  Level FlightAware ADS-B
Tue 04:26:05 PM 35.4810 -77.0890 210° Southwest 473 544 38,000  Level FlightAware ADS-B
Tue 04:26:44 PM 35.4180 -77.1330 210° Southwest 473 544 38,000  Level FlightAware ADS-B
Tue 04:27:20 PM 35.3600 -77.1740 210° Southwest 473 544 38,000  Level FlightAware ADS-B
Tue 04:28:14 PM 35.0872 -77.3664 210° Southwest 482 555 38,000  Level Washington Center
Tue 04:29:15 PM 34.9692 -77.4472 209° Southwest 482 555 38,000  Level Washington Center
Tue 04:30:15 PM 34.8508 -77.5306 210° Southwest 487 560 38,000  Level Washington Center
Tue 04:31:13 PM 34.7369 -77.6114 210° Southwest 487 560 38,000  Level Washington Center
Tue 04:36:36 PM 34.0540 -77.9610 210° Southwest 502 578 38,000  Level FlightAware ADS-B
Tue 04:37:06 PM 33.9870 -77.9800 193° South 502 578 38,000  Level FlightAware ADS-B
Tue 04:37:54 PM 33.8980 -78.0060 194° South 501 577 38,000  Level FlightAware ADS-B
Tue 04:38:26 PM 33.8060 -78.0330 194° South 501 577 38,000  Level FlightAware ADS-B
Tue 04:39:01 PM 33.7310 -78.0540 193° South 506 582 38,000  Level FlightAware ADS-B
Tue 04:39:38 PM 33.6530 -78.0760 193° South 507 583 38,000  Level FlightAware ADS-B
Tue 04:40:34 PM 33.5430 -78.1080 194° South 512 589 38,000  Level FlightAware ADS-B
Tue 04:41:22 PM 33.4030 -78.1480 193° South 511 588 38,000  Level FlightAware ADS-B
Tue 04:42:01 PM 33.3140 -78.1740 194° South 510 587 38,000  Level FlightAware ADS-B
Tue 04:42:36 PM 33.2320 -78.1970 193° South 512 589 38,000  Level FlightAware ADS-B
Tue 04:44:01 PM 33.0360 -78.2520 193° South 511 588 38,000  Level FlightAware ADS-B
Tue 04:44:42 PM 32.9430 -78.2790 194° South 509 586 38,000  Level FlightAware ADS-B
Tue 04:45:16 PM 32.8640 -78.3010 193° South 507 583 38,000  Level FlightAware ADS-B
Tue 04:45:51 PM 32.7850 -78.3230 193° South 507 583 38,000  Level FlightAware ADS-B
Tue 04:46:26 PM 32.7130 -78.3430 193° South 508 585 38,000  Level FlightAware ADS-B
Tue 04:47:01 PM 32.6260 -78.3680 194° South 508 585 38,000  Level FlightAware ADS-B
Tue 04:47:36 PM 32.5440 -78.3910 193° South 508 585 38,000  Level FlightAware ADS-B
Tue 04:48:11 PM 32.4650 -78.4130 193° South 507 583 38,000  Level FlightAware ADS-B
Tue 04:48:46 PM 32.3890 -78.4340 193° South 506 582 38,000  Level FlightAware ADS-B
Tue 04:49:21 PM 32.3110 -78.4570 194° South 507 583 38,000  Level FlightAware ADS-B
Tue 04:50:14 PM 32.1930 -78.4910 194° South 507 583 38,000  Level FlightAware ADS-B
Tue 04:50:48 PM 32.1270 -78.5090 193° South 507 583 38,000  Level FlightAware ADS-B
Tue 04:51:25 PM 32.0550 -78.5280 193° South 507 583 38,000  Level FlightAware ADS-B
Tue 04:52:01 PM 31.9850 -78.5470 193° South 507 583 38,000  Level FlightAware ADS-B
Tue 04:52:39 PM 31.9110 -78.5670 193° South 507 583 38,000  Level FlightAware ADS-B
Tue 04:53:15 PM 31.8410 -78.5860 193° South 507 583 38,000  Level FlightAware ADS-B
Tue 04:53:49 PM 31.7750 -78.6040 193° South 507 583 38,000  Level FlightAware ADS-B
Tue 04:54:26 PM 31.7030 -78.6240 193° South 507 583 38,000  Level FlightAware ADS-B
Tue 04:55:02 PM 31.6330 -78.6430 193° South 507 583 38,000  Level FlightAware ADS-B
Tue 04:55:38 PM 31.5630 -78.6620 193° South 507 583 38,000  Level FlightAware ADS-B
Tue 04:56:24 PM 31.4740 -78.6860 193° South 507 583 38,000  Level FlightAware ADS-B
Tue 04:57:00 PM 31.4040 -78.7050 193° South 507 583 38,000  Level FlightAware ADS-B
Tue 04:57:36 PM 31.3340 -78.7240 193° South 507 583 38,000  Level FlightAware ADS-B
Tue 04:58:14 PM 31.2600 -78.7440 193° South 507 583 38,000  Level FlightAware ADS-B
Tue 04:58:50 PM 31.1900 -78.7630 193° South 507 583 38,000  Level FlightAware ADS-B
Tue 04:59:26 PM 31.1200 -78.7810 192° South 507 583 38,000  Level FlightAware ADS-B
Tue 05:00:17 PM 30.8192 -78.8822 192° South 504 580 38,000  Level Jacksonville Center
Tue 05:01:17 PM 30.6931 -78.9189 194° South 498 573 38,000  Level Jacksonville Center
Tue 05:02:27 PM 30.5419 -78.9625 194° South 485 558 38,000  Level Miami Center
Tue 05:03:27 PM 30.3981 -78.9789 186° South 485 558 38,000  Level Miami Center
Tue 05:04:27 PM 30.2694 -78.9331 163° South 488 562 38,000  Level Miami Center
Tue 05:05:27 PM 30.1325 -78.8919 165° South 505 581 38,000  Level Miami Center
Tue 05:06:27 PM 29.9817 -78.9300 192° South 487 560 38,000  Level Miami Center
Tue 05:07:27 PM 29.8458 -78.9681 194° South 487 560 38,000  Level Miami Center
Tue 05:13:27 PM 29.0390 -79.2080 194° South 496 571 38,000  Level FlightAware ADS-B
Tue 05:14:10 PM 28.9540 -79.2320 194° South 496 571 38,000  Level FlightAware ADS-B
Tue 05:14:44 PM 28.8690 -79.2580 195° South 496 571 38,000  Level FlightAware ADS-B
Tue 05:15:21 PM 28.7880 -79.2820 195° South 495 570 38,000  Level FlightAware ADS-B
Tue 05:15:54 PM 28.7120 -79.3050 195° South 495 570 38,000  Level FlightAware ADS-B
Tue 05:16:31 PM 28.6300 -79.3290 194° South 496 571 38,000  Level FlightAware ADS-B
Tue 05:17:03 PM 28.5620 -79.3490 194° South 497 572 38,000  Level FlightAware ADS-B
Tue 05:17:46 PM 28.4660 -79.3770 194° South 498 573 38,000  Level FlightAware ADS-B
Tue 05:18:22 PM 28.3870 -79.4000 194° South 498 573 38,000  Level FlightAware ADS-B
Tue 05:19:01 PM 28.2980 -79.4260 194° South 495 570 38,000  Level FlightAware ADS-B
Tue 05:19:37 PM 28.2210 -79.4490 195° South 494 568 38,000  Level FlightAware ADS-B
Tue 05:20:28 PM 28.1110 -79.4810 194° South 494 568 38,000  Level FlightAware ADS-B
Tue 05:21:12 PM 28.0100 -79.5110 195° South 496 571 38,000  Level FlightAware ADS-B
Tue 05:21:47 PM 27.9310 -79.5330 194° South 496 571 38,000  Level FlightAware ADS-B
Tue 05:22:26 PM 27.8430 -79.5590 195° South 494 568 38,000  Level FlightAware ADS-B
Tue 05:22:41 PM 27.8110 -79.5680 194° South 486 559 38,000  Level FlightAware ADS-B
Tue 05:23:55 PM 27.6640 -79.6110 195° South 494 568 38,000  Level FlightAware ADS-B
Tue 05:24:31 PM 27.5650 -79.6450 197° South 494 568 38,000  Level FlightAware ADS-B
Tue 05:25:05 PM 27.4940 -79.6820 205° Southwest 493 567 38,000  Level FlightAware ADS-B
Tue 05:25:38 PM 27.4280 -79.7170 205° Southwest 493 567 38,000  Level FlightAware ADS-B
Tue 05:26:14 PM 27.3500 -79.7570 204° Southwest 493 567 38,000  Level FlightAware ADS-B
Tue 05:26:49 PM 27.2820 -79.7930 205° Southwest 491 565 38,000  Level FlightAware ADS-B
Tue 05:27:24 PM 27.2040 -79.8330 205° Southwest 491 565 38,000  Level FlightAware ADS-B
Tue 05:27:56 PM 27.1400 -79.8670 205° Southwest 492 566 38,000  Level FlightAware ADS-B
Tue 05:28:37 PM 27.0570 -79.9100 205° Southwest 492 566 38,000  Level FlightAware ADS-B
Tue 05:29:08 PM 26.9910 -79.9430 204° Southwest 493 567 38,000  Level FlightAware ADS-B
Tue 05:29:44 PM 26.9160 -79.9820 205° Southwest 494 568 38,000  Level FlightAware ADS-B
Tue 05:30:20 PM 26.8420 -80.0200 205° Southwest 493 567 38,000  Level FlightAware ADS-B
Tue 05:30:54 PM 26.7700 -80.0570 205° Southwest 493 567 38,000  Level FlightAware ADS-B
Tue 05:31:27 PM 26.7030 -80.0920 205° Southwest 493 567 38,000  Level FlightAware ADS-B
Tue 05:32:05 PM 26.6250 -80.1320 205° Southwest 494 568 38,000  Level FlightAware ADS-B
Tue 05:32:45 PM 26.5430 -80.1740 205° Southwest 494 568 38,000  Level FlightAware ADS-B
Tue 05:33:20 PM 26.4680 -80.2120 204° Southwest 496 571 38,000  Level FlightAware ADS-B
Tue 05:33:55 PM 26.3970 -80.2490 205° Southwest 494 568 38,000  Level FlightAware ADS-B
Tue 05:34:30 PM 26.3220 -80.2870 204° Southwest 501 577 38,000  Level FlightAware ADS-B
Tue 05:35:15 PM 26.2270 -80.3360 205° Southwest 497 572 38,000  Level FlightAware ADS-B
Tue 05:35:55 PM 26.1390 -80.3800 204° Southwest 496 571 38,000  Level FlightAware ADS-B
Tue 05:36:30 PM 26.0660 -80.4170 204° Southwest 494 568 38,000  Level FlightAware ADS-B
Tue 05:37:11 PM 25.9820 -80.4670 208° Southwest 490 564 38,000  Level FlightAware ADS-B
Tue 05:37:46 PM 25.9250 -80.5280 224° Southwest 494 568 38,000  Level FlightAware ADS-B
Tue 05:38:21 PM 25.8670 -80.5900 224° Southwest 494 568 38,000  Level FlightAware ADS-B
Tue 05:38:56 PM 25.8130 -80.6460 223° Southwest 490 564 38,000  Level FlightAware ADS-B
Tue 05:39:31 PM 25.7510 -80.7110 223° Southwest 490 564 38,000  Level FlightAware ADS-B
Tue 05:39:56 PM 25.7090 -80.7560 224° Southwest 490 564 38,000  Level FlightAware ADS-B
Tue 05:40:38 PM 25.6600 -80.8070 223° Southwest 491 565 38,000  Level FlightAware ADS-B
Tue 05:41:20 PM 25.5680 -80.9040 224° Southwest 490 564 38,000  Level FlightAware ADS-B
Tue 05:41:55 PM 25.5100 -80.9650 224° Southwest 490 564 38,000  Level FlightAware ADS-B
Tue 05:42:25 PM 25.4590 -81.0180 223° Southwest 489 563 38,000  Level FlightAware ADS-B
Tue 05:43:27 PM 25.3590 -81.1230 224° Southwest 493 567 38,000  Level FlightAware ADS-B
Tue 05:44:01 PM 25.3010 -81.1830 223° Southwest 491 565 38,000  Level FlightAware ADS-B
Tue 05:44:37 PM 25.2430 -81.2440 224° Southwest 490 564 38,000  Level FlightAware ADS-B
Tue 05:45:11 PM 25.1850 -81.3040 223° Southwest 490 564 38,000  Level FlightAware ADS-B
Tue 05:45:42 PM 25.1360 -81.3550 223° Southwest 489 563 38,000  Level FlightAware ADS-B
Tue 05:46:20 PM 25.0720 -81.4210 223° Southwest 488 562 38,000  Level FlightAware ADS-B
Tue 05:46:56 PM 25.0140 -81.4820 224° Southwest 487 560 38,000  Level FlightAware ADS-B
Tue 05:47:30 PM 24.9570 -81.5410 223° Southwest 485 558 38,000  Level FlightAware ADS-B
Tue 05:48:06 PM 24.9000 -81.6000 223° Southwest 483 556 38,000 -343 Level FlightAware ADS-B
Tue 05:48:40 PM 24.8420 -81.6590 223° Southwest 486 559 37,600 -1,268 Descending FlightAware ADS-B
Tue 05:49:17 PM 24.7850 -81.7180 223° Southwest 484 557 36,500 -1,840 Descending FlightAware ADS-B
Tue 05:49:55 PM 24.7210 -81.7840 223° Southwest 481 554 35,300 -1,865 Descending FlightAware ADS-B
Tue 05:50:31 PM 24.6660 -81.8400 223° Southwest 471 542 34,200 -1,840 Descending FlightAware ADS-B
Tue 05:51:10 PM 24.6010 -81.9070 223° Southwest 464 534 33,000 -1,714 Descending FlightAware ADS-B
Tue 05:51:41 PM 24.5570 -81.9520 223° Southwest 462 532 32,200 -1,754 Descending FlightAware ADS-B
Tue 05:52:15 PM 24.4960 -82.0140 223° Southwest 459 528 31,100 -1,662 Descending FlightAware ADS-B
Tue 05:52:46 PM 24.4550 -82.0570 224° Southwest 445 512 30,400 -1,556 Descending FlightAware ADS-B
Tue 05:53:36 PM 24.3760 -82.1370 223° Southwest 445 512 29,000 -1,643 Descending FlightAware ADS-B
Tue 05:54:10 PM 24.3280 -82.1870 224° Southwest 439 505 28,100 -1,680 Descending FlightAware ADS-B
Tue 05:54:51 PM 24.2630 -82.2520 222° Southwest 425 489 26,900 -975 Descending FlightAware ADS-B
Tue 05:55:30 PM 24.2190 -82.2970 223° Southwest 423 487 26,800 -1,556 Descending FlightAware ADS-B
Tue 05:56:12 PM 24.1500 -82.3670 223° Southwest 423 487 24,800 -1,500 Descending FlightAware ADS-B
Tue 05:56:50 PM 24.1030 -82.4140 222° Southwest 423 487 24,800  Level FlightAware ADS-B
Tue 05:57:26 PM 24.0580 -82.4580 222° Southwest 423 487 24,800  Level FlightAware ADS-B
Tue 05:58:02 PM 24.0140 -82.5020 222° Southwest 423 487 24,800  Level FlightAware ADS-B
Tue 05:58:39 PM 23.9680 -82.5470 222° Southwest 423 487 24,800  Level FlightAware ADS-B
Tue 05:59:16 PM 23.9220 -82.5920 222° Southwest 423 487 24,800  Level FlightAware ADS-B
Tue 05:59:53 PM 23.8770 -82.6370 222° Southwest 423 487 24,800  Level FlightAware ADS-B
Tue 06:07:00 PM 23.0703 -82.4041 170° South  Level FlightAware Approximate
Tue 06:08:00 PM 22.9891 -82.4091 180° South  Level Estimated
Tue 06:09:00 PM 22.9891 -82.4091 180° South  Level Estimated
Tue 06:10:00 PM 22.9891 -82.4091 180° South  Level Estimated
Tue 06:11:00 PM 22.9891 -82.4091 180° South  Level Estimated
Tue 06:12:00 PM 22.9891 -82.4091 180° South  Level Estimated
Tue 06:13:00 PM 22.9891 -82.4091 180° South  Level Estimated
Tue 06:14:00 PM 22.9891 -82.4091 180° South  Level Estimated
Tue 06:15:00 PM 22.9891 -82.4091 180° South  Level Estimated
Tue 06:16:00 PM 22.9891 -82.4091 180° South  Level Estimated
Tue 06:17:00 PM 22.9891 -82.4091 180° South  Level Estimated
Tue 06:18:00 PM 22.9891 -82.4091 180° South  Level Estimated
Tue 06:19:00 PM 22.9891 -82.4091 180° South  Level Estimated
Tue 06:20:00 PM 22.9891 -82.4091 180° South  Level Estimated
Tue 06:21:00 PM 22.9891 -82.4091 180° South  Level Estimated
Tue 06:22:00 PM 22.9891 -82.4091 180° South  Level Estimated
Tue 06:23:00 PM 22.9891 -82.4091 180° South  Level Estimated
Tue 06:24:00 PM 22.9891 -82.4091 180° South  Level Estimated
Tue 06:25:00 PM 22.9891 -82.4091 180° South  Level Estimated
Tue 06:26:00 PM 22.9891 -82.4091 180° South  Level Estimated

Login

Don't have an account? Register now (free) for customized features, flight alerts, and more!